<?xml version="1.0" encoding="UTF-8" standalone="no" ?>
<gpx xmlns="http://www.topografix.com/GPX/1/1" xmlns:xsi="http://www.w3.org/2001/XMLSchema-instance" xsi:schemaLocation="http://www.topografix.com/GPX/1/1 http://www.topografix.com/GPX/1/1/gpx.xsd" version="1.1" creator="VisuGPX - https://www.visugpx.com">
  <metadata>
    <name>Les Marbrières</name>
    <desc><![CDATA[Circuit de 49 km au départ d'Ambleteuse]]></desc>
  </metadata>
  <trk>
    <name><![CDATA[8706656-Les Marbrières]]></name>
    <trkseg>
      <trkpt lat="50.81183" lon="1.61224">
        <ele>39</ele>
        <time>2019-09-10T14:40:06Z</time>
      </trkpt>
      <trkpt lat="50.81129" lon="1.61027">
        <ele>35</ele>
        <time>2019-09-10T14:40:30Z</time>
      </trkpt>
      <trkpt lat="50.81113" lon="1.60993">
        <ele>34</ele>
        <time>2019-09-10T14:40:35Z</time>
      </trkpt>
      <trkpt lat="50.81047" lon="1.60889">
        <ele>32</ele>
        <time>2019-09-10T14:40:51Z</time>
      </trkpt>
      <trkpt lat="50.81047" lon="1.60889">
        <ele>32</ele>
        <time>2019-09-10T14:40:51Z</time>
      </trkpt>
      <trkpt lat="50.81039" lon="1.60875">
        <ele>31</ele>
        <time>2019-09-10T14:40:54Z</time>
      </trkpt>
      <trkpt lat="50.80911" lon="1.6107">
        <ele>30</ele>
        <time>2019-09-10T14:41:25Z</time>
      </trkpt>
      <trkpt lat="50.80802" lon="1.61285">
        <ele>30</ele>
        <time>2019-09-10T14:41:56Z</time>
      </trkpt>
      <trkpt lat="50.80776" lon="1.61325">
        <ele>29</ele>
        <time>2019-09-10T14:42:03Z</time>
      </trkpt>
      <trkpt lat="50.80729" lon="1.61389">
        <ele>27</ele>
        <time>2019-09-10T14:42:14Z</time>
      </trkpt>
      <trkpt lat="50.80664" lon="1.61471">
        <ele>24</ele>
        <time>2019-09-10T14:42:28Z</time>
      </trkpt>
      <trkpt lat="50.80628" lon="1.6151">
        <ele>24</ele>
        <time>2019-09-10T14:42:36Z</time>
      </trkpt>
      <trkpt lat="50.806" lon="1.61546">
        <ele>24</ele>
        <time>2019-09-10T14:42:43Z</time>
      </trkpt>
      <trkpt lat="50.80584" lon="1.61583">
        <ele>23</ele>
        <time>2019-09-10T14:42:48Z</time>
      </trkpt>
      <trkpt lat="50.80581" lon="1.61597">
        <ele>23</ele>
        <time>2019-09-10T14:42:49Z</time>
      </trkpt>
      <trkpt lat="50.80578" lon="1.61627">
        <ele>22</ele>
        <time>2019-09-10T14:42:53Z</time>
      </trkpt>
      <trkpt lat="50.80572" lon="1.61649">
        <ele>22</ele>
        <time>2019-09-10T14:42:55Z</time>
      </trkpt>
      <trkpt lat="50.80563" lon="1.61669">
        <ele>22</ele>
        <time>2019-09-10T14:42:58Z</time>
      </trkpt>
      <trkpt lat="50.80555" lon="1.61678">
        <ele>21</ele>
        <time>2019-09-10T14:43:00Z</time>
      </trkpt>
      <trkpt lat="50.80535" lon="1.61687">
        <ele>21</ele>
        <time>2019-09-10T14:43:04Z</time>
      </trkpt>
      <trkpt lat="50.80534" lon="1.61709">
        <ele>20</ele>
        <time>2019-09-10T14:43:06Z</time>
      </trkpt>
      <trkpt lat="50.80387" lon="1.62138">
        <ele>13</ele>
        <time>2019-09-10T14:44:01Z</time>
      </trkpt>
      <trkpt lat="50.80378" lon="1.62178">
        <ele>14</ele>
        <time>2019-09-10T14:44:06Z</time>
      </trkpt>
      <trkpt lat="50.80376" lon="1.62193">
        <ele>15</ele>
        <time>2019-09-10T14:44:08Z</time>
      </trkpt>
      <trkpt lat="50.80376" lon="1.62218">
        <ele>16</ele>
        <time>2019-09-10T14:44:10Z</time>
      </trkpt>
      <trkpt lat="50.80377" lon="1.62302">
        <ele>18</ele>
        <time>2019-09-10T14:44:20Z</time>
      </trkpt>
      <trkpt lat="50.80352" lon="1.62469">
        <ele>18</ele>
        <time>2019-09-10T14:44:39Z</time>
      </trkpt>
      <trkpt lat="50.8034" lon="1.62578">
        <ele>15</ele>
        <time>2019-09-10T14:44:52Z</time>
      </trkpt>
      <trkpt lat="50.80325" lon="1.62689">
        <ele>12</ele>
        <time>2019-09-10T14:45:04Z</time>
      </trkpt>
      <trkpt lat="50.8032" lon="1.62718">
        <ele>11</ele>
        <time>2019-09-10T14:45:08Z</time>
      </trkpt>
      <trkpt lat="50.8031" lon="1.62728">
        <ele>11</ele>
        <time>2019-09-10T14:45:10Z</time>
      </trkpt>
      <trkpt lat="50.80299" lon="1.62732">
        <ele>11</ele>
        <time>2019-09-10T14:45:12Z</time>
      </trkpt>
      <trkpt lat="50.80247" lon="1.62741">
        <ele>9</ele>
        <time>2019-09-10T14:45:21Z</time>
      </trkpt>
      <trkpt lat="50.80197" lon="1.62744">
        <ele>9</ele>
        <time>2019-09-10T14:45:30Z</time>
      </trkpt>
      <trkpt lat="50.80153" lon="1.62752">
        <ele>9</ele>
        <time>2019-09-10T14:45:38Z</time>
      </trkpt>
      <trkpt lat="50.80148" lon="1.62756">
        <ele>10</ele>
        <time>2019-09-10T14:45:39Z</time>
      </trkpt>
      <trkpt lat="50.80138" lon="1.62776">
        <ele>10</ele>
        <time>2019-09-10T14:45:42Z</time>
      </trkpt>
      <trkpt lat="50.80132" lon="1.62806">
        <ele>10</ele>
        <time>2019-09-10T14:45:45Z</time>
      </trkpt>
      <trkpt lat="50.80123" lon="1.62878">
        <ele>10</ele>
        <time>2019-09-10T14:45:54Z</time>
      </trkpt>
      <trkpt lat="50.8012" lon="1.62925">
        <ele>10</ele>
        <time>2019-09-10T14:45:59Z</time>
      </trkpt>
      <trkpt lat="50.80122" lon="1.62974">
        <ele>11</ele>
        <time>2019-09-10T14:46:04Z</time>
      </trkpt>
      <trkpt lat="50.80128" lon="1.63004">
        <ele>10</ele>
        <time>2019-09-10T14:46:08Z</time>
      </trkpt>
      <trkpt lat="50.80197" lon="1.63289">
        <ele>8</ele>
        <time>2019-09-10T14:46:42Z</time>
      </trkpt>
      <trkpt lat="50.80201" lon="1.63322">
        <ele>7</ele>
        <time>2019-09-10T14:46:46Z</time>
      </trkpt>
      <trkpt lat="50.80195" lon="1.63336">
        <ele>8</ele>
        <time>2019-09-10T14:46:48Z</time>
      </trkpt>
      <trkpt lat="50.80188" lon="1.63343">
        <ele>8</ele>
        <time>2019-09-10T14:46:49Z</time>
      </trkpt>
      <trkpt lat="50.80172" lon="1.63348">
        <ele>8</ele>
        <time>2019-09-10T14:46:52Z</time>
      </trkpt>
      <trkpt lat="50.80083" lon="1.63368">
        <ele>10</ele>
        <time>2019-09-10T14:47:08Z</time>
      </trkpt>
      <trkpt lat="50.80069" lon="1.63364">
        <ele>10</ele>
        <time>2019-09-10T14:47:11Z</time>
      </trkpt>
      <trkpt lat="50.80056" lon="1.63357">
        <ele>10</ele>
        <time>2019-09-10T14:47:13Z</time>
      </trkpt>
      <trkpt lat="50.80034" lon="1.63337">
        <ele>10</ele>
        <time>2019-09-10T14:47:18Z</time>
      </trkpt>
      <trkpt lat="50.79924" lon="1.63218">
        <ele>10</ele>
        <time>2019-09-10T14:47:41Z</time>
      </trkpt>
      <trkpt lat="50.79798" lon="1.63089">
        <ele>11</ele>
        <time>2019-09-10T14:48:08Z</time>
      </trkpt>
      <trkpt lat="50.79781" lon="1.6308">
        <ele>10</ele>
        <time>2019-09-10T14:48:11Z</time>
      </trkpt>
      <trkpt lat="50.79735" lon="1.63072">
        <ele>9</ele>
        <time>2019-09-10T14:48:20Z</time>
      </trkpt>
      <trkpt lat="50.79633" lon="1.6306">
        <ele>10</ele>
        <time>2019-09-10T14:48:38Z</time>
      </trkpt>
      <trkpt lat="50.79604" lon="1.6306">
        <ele>10</ele>
        <time>2019-09-10T14:48:43Z</time>
      </trkpt>
      <trkpt lat="50.79507" lon="1.63087">
        <ele>17</ele>
        <time>2019-09-10T14:49:00Z</time>
      </trkpt>
      <trkpt lat="50.79485" lon="1.63096">
        <ele>18</ele>
        <time>2019-09-10T14:49:05Z</time>
      </trkpt>
      <trkpt lat="50.79407" lon="1.63144">
        <ele>22</ele>
        <time>2019-09-10T14:49:19Z</time>
      </trkpt>
      <trkpt lat="50.79191" lon="1.63242">
        <ele>14</ele>
        <time>2019-09-10T14:49:59Z</time>
      </trkpt>
      <trkpt lat="50.79092" lon="1.63369">
        <ele>14</ele>
        <time>2019-09-10T14:50:22Z</time>
      </trkpt>
      <trkpt lat="50.79092" lon="1.63369">
        <ele>14</ele>
        <time>2019-09-10T14:50:22Z</time>
      </trkpt>
      <trkpt lat="50.79077" lon="1.63388">
        <ele>14</ele>
        <time>2019-09-10T14:50:26Z</time>
      </trkpt>
      <trkpt lat="50.79017" lon="1.63427">
        <ele>14</ele>
        <time>2019-09-10T14:50:37Z</time>
      </trkpt>
      <trkpt lat="50.79059" lon="1.63499">
        <ele>15</ele>
        <time>2019-09-10T14:50:48Z</time>
      </trkpt>
      <trkpt lat="50.79102" lon="1.6358">
        <ele>19</ele>
        <time>2019-09-10T14:51:00Z</time>
      </trkpt>
      <trkpt lat="50.79137" lon="1.63663">
        <ele>21</ele>
        <time>2019-09-10T14:51:11Z</time>
      </trkpt>
      <trkpt lat="50.79172" lon="1.63735">
        <ele>23</ele>
        <time>2019-09-10T14:51:21Z</time>
      </trkpt>
      <trkpt lat="50.79268" lon="1.63846">
        <ele>20</ele>
        <time>2019-09-10T14:51:43Z</time>
      </trkpt>
      <trkpt lat="50.79278" lon="1.63855">
        <ele>21</ele>
        <time>2019-09-10T14:51:45Z</time>
      </trkpt>
      <trkpt lat="50.79291" lon="1.63857">
        <ele>21</ele>
        <time>2019-09-10T14:51:47Z</time>
      </trkpt>
      <trkpt lat="50.79309" lon="1.63854">
        <ele>21</ele>
        <time>2019-09-10T14:51:50Z</time>
      </trkpt>
      <trkpt lat="50.79325" lon="1.63841">
        <ele>20</ele>
        <time>2019-09-10T14:51:53Z</time>
      </trkpt>
      <trkpt lat="50.79369" lon="1.63816">
        <ele>21</ele>
        <time>2019-09-10T14:52:02Z</time>
      </trkpt>
      <trkpt lat="50.79388" lon="1.63815">
        <ele>22</ele>
        <time>2019-09-10T14:52:05Z</time>
      </trkpt>
      <trkpt lat="50.79407" lon="1.63825">
        <ele>23</ele>
        <time>2019-09-10T14:52:09Z</time>
      </trkpt>
      <trkpt lat="50.7946" lon="1.63875">
        <ele>24</ele>
        <time>2019-09-10T14:52:20Z</time>
      </trkpt>
      <trkpt lat="50.79478" lon="1.63894">
        <ele>25</ele>
        <time>2019-09-10T14:52:23Z</time>
      </trkpt>
      <trkpt lat="50.79493" lon="1.63917">
        <ele>25</ele>
        <time>2019-09-10T14:52:27Z</time>
      </trkpt>
      <trkpt lat="50.79521" lon="1.6397">
        <ele>25</ele>
        <time>2019-09-10T14:52:35Z</time>
      </trkpt>
      <trkpt lat="50.79558" lon="1.64046">
        <ele>25</ele>
        <time>2019-09-10T14:52:46Z</time>
      </trkpt>
      <trkpt lat="50.79577" lon="1.64124">
        <ele>26</ele>
        <time>2019-09-10T14:52:55Z</time>
      </trkpt>
      <trkpt lat="50.79589" lon="1.64197">
        <ele>29</ele>
        <time>2019-09-10T14:53:04Z</time>
      </trkpt>
      <trkpt lat="50.79643" lon="1.64307">
        <ele>32</ele>
        <time>2019-09-10T14:53:19Z</time>
      </trkpt>
      <trkpt lat="50.79665" lon="1.64393">
        <ele>33</ele>
        <time>2019-09-10T14:53:30Z</time>
      </trkpt>
      <trkpt lat="50.79676" lon="1.64443">
        <ele>33</ele>
        <time>2019-09-10T14:53:36Z</time>
      </trkpt>
      <trkpt lat="50.79683" lon="1.64492">
        <ele>32</ele>
        <time>2019-09-10T14:53:41Z</time>
      </trkpt>
      <trkpt lat="50.79679" lon="1.64548">
        <ele>31</ele>
        <time>2019-09-10T14:53:48Z</time>
      </trkpt>
      <trkpt lat="50.79671" lon="1.64594">
        <ele>31</ele>
        <time>2019-09-10T14:53:53Z</time>
      </trkpt>
      <trkpt lat="50.79657" lon="1.64691">
        <ele>29</ele>
        <time>2019-09-10T14:54:04Z</time>
      </trkpt>
      <trkpt lat="50.7966" lon="1.64738">
        <ele>29</ele>
        <time>2019-09-10T14:54:10Z</time>
      </trkpt>
      <trkpt lat="50.79668" lon="1.64751">
        <ele>28</ele>
        <time>2019-09-10T14:54:12Z</time>
      </trkpt>
      <trkpt lat="50.79705" lon="1.64777">
        <ele>27</ele>
        <time>2019-09-10T14:54:19Z</time>
      </trkpt>
      <trkpt lat="50.79859" lon="1.64822">
        <ele>23</ele>
        <time>2019-09-10T14:54:47Z</time>
      </trkpt>
      <trkpt lat="50.79876" lon="1.64832">
        <ele>23</ele>
        <time>2019-09-10T14:54:50Z</time>
      </trkpt>
      <trkpt lat="50.79894" lon="1.64861">
        <ele>24</ele>
        <time>2019-09-10T14:54:54Z</time>
      </trkpt>
      <trkpt lat="50.79901" lon="1.64889">
        <ele>26</ele>
        <time>2019-09-10T14:54:58Z</time>
      </trkpt>
      <trkpt lat="50.79902" lon="1.6492">
        <ele>27</ele>
        <time>2019-09-10T14:55:01Z</time>
      </trkpt>
      <trkpt lat="50.79895" lon="1.64947">
        <ele>29</ele>
        <time>2019-09-10T14:55:05Z</time>
      </trkpt>
      <trkpt lat="50.79872" lon="1.65002">
        <ele>30</ele>
        <time>2019-09-10T14:55:12Z</time>
      </trkpt>
      <trkpt lat="50.7986" lon="1.65047">
        <ele>31</ele>
        <time>2019-09-10T14:55:17Z</time>
      </trkpt>
      <trkpt lat="50.79841" lon="1.6524">
        <ele>25</ele>
        <time>2019-09-10T14:55:39Z</time>
      </trkpt>
      <trkpt lat="50.7981" lon="1.65273">
        <ele>25</ele>
        <time>2019-09-10T14:55:46Z</time>
      </trkpt>
      <trkpt lat="50.79771" lon="1.65292">
        <ele>25</ele>
        <time>2019-09-10T14:55:53Z</time>
      </trkpt>
      <trkpt lat="50.79744" lon="1.65323">
        <ele>26</ele>
        <time>2019-09-10T14:55:59Z</time>
      </trkpt>
      <trkpt lat="50.79717" lon="1.65382">
        <ele>27</ele>
        <time>2019-09-10T14:56:07Z</time>
      </trkpt>
      <trkpt lat="50.79716" lon="1.654">
        <ele>27</ele>
        <time>2019-09-10T14:56:10Z</time>
      </trkpt>
      <trkpt lat="50.7972" lon="1.65406">
        <ele>26</ele>
        <time>2019-09-10T14:56:11Z</time>
      </trkpt>
      <trkpt lat="50.79908" lon="1.65585">
        <ele>15</ele>
        <time>2019-09-10T14:56:50Z</time>
      </trkpt>
      <trkpt lat="50.79937" lon="1.6562">
        <ele>14</ele>
        <time>2019-09-10T14:56:56Z</time>
      </trkpt>
      <trkpt lat="50.79976" lon="1.65698">
        <ele>12</ele>
        <time>2019-09-10T14:57:07Z</time>
      </trkpt>
      <trkpt lat="50.79989" lon="1.65738">
        <ele>11</ele>
        <time>2019-09-10T14:57:12Z</time>
      </trkpt>
      <trkpt lat="50.80046" lon="1.65966">
        <ele>14</ele>
        <time>2019-09-10T14:57:40Z</time>
      </trkpt>
      <trkpt lat="50.8011" lon="1.66193">
        <ele>19</ele>
        <time>2019-09-10T14:58:08Z</time>
      </trkpt>
      <trkpt lat="50.8012" lon="1.66234">
        <ele>20</ele>
        <time>2019-09-10T14:58:13Z</time>
      </trkpt>
      <trkpt lat="50.80149" lon="1.66401">
        <ele>23</ele>
        <time>2019-09-10T14:58:32Z</time>
      </trkpt>
      <trkpt lat="50.80156" lon="1.66425">
        <ele>24</ele>
        <time>2019-09-10T14:58:35Z</time>
      </trkpt>
      <trkpt lat="50.80174" lon="1.66469">
        <ele>24</ele>
        <time>2019-09-10T14:58:41Z</time>
      </trkpt>
      <trkpt lat="50.80185" lon="1.66472">
        <ele>24</ele>
        <time>2019-09-10T14:58:43Z</time>
      </trkpt>
      <trkpt lat="50.80199" lon="1.66491">
        <ele>24</ele>
        <time>2019-09-10T14:58:46Z</time>
      </trkpt>
      <trkpt lat="50.8022" lon="1.66544">
        <ele>24</ele>
        <time>2019-09-10T14:58:53Z</time>
      </trkpt>
      <trkpt lat="50.80225" lon="1.66565">
        <ele>25</ele>
        <time>2019-09-10T14:58:56Z</time>
      </trkpt>
      <trkpt lat="50.80237" lon="1.66642">
        <ele>25</ele>
        <time>2019-09-10T14:59:05Z</time>
      </trkpt>
      <trkpt lat="50.80249" lon="1.66678">
        <ele>26</ele>
        <time>2019-09-10T14:59:09Z</time>
      </trkpt>
      <trkpt lat="50.80285" lon="1.6677">
        <ele>26</ele>
        <time>2019-09-10T14:59:22Z</time>
      </trkpt>
      <trkpt lat="50.80288" lon="1.66792">
        <ele>27</ele>
        <time>2019-09-10T14:59:24Z</time>
      </trkpt>
      <trkpt lat="50.80291" lon="1.66851">
        <ele>27</ele>
        <time>2019-09-10T14:59:31Z</time>
      </trkpt>
      <trkpt lat="50.80291" lon="1.66947">
        <ele>25</ele>
        <time>2019-09-10T14:59:42Z</time>
      </trkpt>
      <trkpt lat="50.80307" lon="1.67079">
        <ele>22</ele>
        <time>2019-09-10T14:59:57Z</time>
      </trkpt>
      <trkpt lat="50.80319" lon="1.67166">
        <ele>20</ele>
        <time>2019-09-10T15:00:07Z</time>
      </trkpt>
      <trkpt lat="50.80339" lon="1.67219">
        <ele>17</ele>
        <time>2019-09-10T15:00:14Z</time>
      </trkpt>
      <trkpt lat="50.8036" lon="1.67256">
        <ele>15</ele>
        <time>2019-09-10T15:00:19Z</time>
      </trkpt>
      <trkpt lat="50.80366" lon="1.67274">
        <ele>15</ele>
        <time>2019-09-10T15:00:22Z</time>
      </trkpt>
      <trkpt lat="50.8038" lon="1.67392">
        <ele>15</ele>
        <time>2019-09-10T15:00:35Z</time>
      </trkpt>
      <trkpt lat="50.80376" lon="1.67468">
        <ele>16</ele>
        <time>2019-09-10T15:00:44Z</time>
      </trkpt>
      <trkpt lat="50.80378" lon="1.67514">
        <ele>18</ele>
        <time>2019-09-10T15:00:49Z</time>
      </trkpt>
      <trkpt lat="50.80377" lon="1.67668">
        <ele>23</ele>
        <time>2019-09-10T15:01:06Z</time>
      </trkpt>
      <trkpt lat="50.80383" lon="1.67722">
        <ele>26</ele>
        <time>2019-09-10T15:01:12Z</time>
      </trkpt>
      <trkpt lat="50.80406" lon="1.67846">
        <ele>31</ele>
        <time>2019-09-10T15:01:27Z</time>
      </trkpt>
      <trkpt lat="50.80444" lon="1.67993">
        <ele>31</ele>
        <time>2019-09-10T15:01:45Z</time>
      </trkpt>
      <trkpt lat="50.80453" lon="1.68134">
        <ele>30</ele>
        <time>2019-09-10T15:02:01Z</time>
      </trkpt>
      <trkpt lat="50.80478" lon="1.68288">
        <ele>27</ele>
        <time>2019-09-10T15:02:18Z</time>
      </trkpt>
      <trkpt lat="50.80486" lon="1.68397">
        <ele>26</ele>
        <time>2019-09-10T15:02:31Z</time>
      </trkpt>
      <trkpt lat="50.80491" lon="1.68434">
        <ele>25</ele>
        <time>2019-09-10T15:02:35Z</time>
      </trkpt>
      <trkpt lat="50.80591" lon="1.68711">
        <ele>13</ele>
        <time>2019-09-10T15:03:11Z</time>
      </trkpt>
      <trkpt lat="50.80647" lon="1.68852">
        <ele>10</ele>
        <time>2019-09-10T15:03:30Z</time>
      </trkpt>
      <trkpt lat="50.80687" lon="1.68936">
        <ele>9</ele>
        <time>2019-09-10T15:03:41Z</time>
      </trkpt>
      <trkpt lat="50.80724" lon="1.69042">
        <ele>9</ele>
        <time>2019-09-10T15:03:55Z</time>
      </trkpt>
      <trkpt lat="50.80732" lon="1.69088">
        <ele>10</ele>
        <time>2019-09-10T15:04:00Z</time>
      </trkpt>
      <trkpt lat="50.80732" lon="1.69088">
        <ele>10</ele>
        <time>2019-09-10T15:04:00Z</time>
      </trkpt>
      <trkpt lat="50.80734" lon="1.69096">
        <ele>11</ele>
        <time>2019-09-10T15:04:01Z</time>
      </trkpt>
      <trkpt lat="50.80737" lon="1.69183">
        <ele>14</ele>
        <time>2019-09-10T15:04:11Z</time>
      </trkpt>
      <trkpt lat="50.80734" lon="1.69221">
        <ele>15</ele>
        <time>2019-09-10T15:04:16Z</time>
      </trkpt>
      <trkpt lat="50.8072" lon="1.69303">
        <ele>17</ele>
        <time>2019-09-10T15:04:25Z</time>
      </trkpt>
      <trkpt lat="50.80701" lon="1.69397">
        <ele>18</ele>
        <time>2019-09-10T15:04:36Z</time>
      </trkpt>
      <trkpt lat="50.807" lon="1.69417">
        <ele>17</ele>
        <time>2019-09-10T15:04:38Z</time>
      </trkpt>
      <trkpt lat="50.80701" lon="1.69434">
        <ele>17</ele>
        <time>2019-09-10T15:04:40Z</time>
      </trkpt>
      <trkpt lat="50.80709" lon="1.6946">
        <ele>16</ele>
        <time>2019-09-10T15:04:44Z</time>
      </trkpt>
      <trkpt lat="50.80717" lon="1.6947">
        <ele>16</ele>
        <time>2019-09-10T15:04:45Z</time>
      </trkpt>
      <trkpt lat="50.80746" lon="1.69489">
        <ele>14</ele>
        <time>2019-09-10T15:04:51Z</time>
      </trkpt>
      <trkpt lat="50.80873" lon="1.69536">
        <ele>8</ele>
        <time>2019-09-10T15:05:14Z</time>
      </trkpt>
      <trkpt lat="50.80998" lon="1.69654">
        <ele>7</ele>
        <time>2019-09-10T15:05:40Z</time>
      </trkpt>
      <trkpt lat="50.81114" lon="1.69775">
        <ele>6</ele>
        <time>2019-09-10T15:06:05Z</time>
      </trkpt>
      <trkpt lat="50.81107" lon="1.69868">
        <ele>7</ele>
        <time>2019-09-10T15:06:15Z</time>
      </trkpt>
      <trkpt lat="50.81031" lon="1.70418">
        <ele>8</ele>
        <time>2019-09-10T15:07:19Z</time>
      </trkpt>
      <trkpt lat="50.8101" lon="1.70533">
        <ele>7</ele>
        <time>2019-09-10T15:07:32Z</time>
      </trkpt>
      <trkpt lat="50.81011" lon="1.7059">
        <ele>7</ele>
        <time>2019-09-10T15:07:39Z</time>
      </trkpt>
      <trkpt lat="50.81023" lon="1.70651">
        <ele>8</ele>
        <time>2019-09-10T15:07:46Z</time>
      </trkpt>
      <trkpt lat="50.81041" lon="1.70707">
        <ele>9</ele>
        <time>2019-09-10T15:07:53Z</time>
      </trkpt>
      <trkpt lat="50.81069" lon="1.70746">
        <ele>10</ele>
        <time>2019-09-10T15:07:59Z</time>
      </trkpt>
      <trkpt lat="50.8105" lon="1.70789">
        <ele>11</ele>
        <time>2019-09-10T15:08:05Z</time>
      </trkpt>
      <trkpt lat="50.8104" lon="1.70799">
        <ele>11</ele>
        <time>2019-09-10T15:08:07Z</time>
      </trkpt>
      <trkpt lat="50.81041" lon="1.70813">
        <ele>12</ele>
        <time>2019-09-10T15:08:09Z</time>
      </trkpt>
      <trkpt lat="50.81039" lon="1.70835">
        <ele>12</ele>
        <time>2019-09-10T15:08:11Z</time>
      </trkpt>
      <trkpt lat="50.81006" lon="1.70913">
        <ele>14</ele>
        <time>2019-09-10T15:08:22Z</time>
      </trkpt>
      <trkpt lat="50.80975" lon="1.70959">
        <ele>13</ele>
        <time>2019-09-10T15:08:30Z</time>
      </trkpt>
      <trkpt lat="50.80964" lon="1.70984">
        <ele>13</ele>
        <time>2019-09-10T15:08:33Z</time>
      </trkpt>
      <trkpt lat="50.80961" lon="1.70998">
        <ele>13</ele>
        <time>2019-09-10T15:08:35Z</time>
      </trkpt>
      <trkpt lat="50.80954" lon="1.71057">
        <ele>12</ele>
        <time>2019-09-10T15:08:41Z</time>
      </trkpt>
      <trkpt lat="50.8096" lon="1.71156">
        <ele>13</ele>
        <time>2019-09-10T15:08:53Z</time>
      </trkpt>
      <trkpt lat="50.80958" lon="1.71183">
        <ele>13</ele>
        <time>2019-09-10T15:08:56Z</time>
      </trkpt>
      <trkpt lat="50.80951" lon="1.71212">
        <ele>13</ele>
        <time>2019-09-10T15:08:59Z</time>
      </trkpt>
      <trkpt lat="50.80935" lon="1.71265">
        <ele>13</ele>
        <time>2019-09-10T15:09:06Z</time>
      </trkpt>
      <trkpt lat="50.8092" lon="1.71347">
        <ele>14</ele>
        <time>2019-09-10T15:09:15Z</time>
      </trkpt>
      <trkpt lat="50.80913" lon="1.7137">
        <ele>14</ele>
        <time>2019-09-10T15:09:18Z</time>
      </trkpt>
      <trkpt lat="50.80913" lon="1.7137">
        <ele>14</ele>
        <time>2019-09-10T15:09:18Z</time>
      </trkpt>
      <trkpt lat="50.80873" lon="1.71493">
        <ele>17</ele>
        <time>2019-09-10T15:09:34Z</time>
      </trkpt>
      <trkpt lat="50.8083" lon="1.71593">
        <ele>18</ele>
        <time>2019-09-10T15:09:47Z</time>
      </trkpt>
      <trkpt lat="50.8078" lon="1.71733">
        <ele>19</ele>
        <time>2019-09-10T15:10:05Z</time>
      </trkpt>
      <trkpt lat="50.80724" lon="1.71871">
        <ele>21</ele>
        <time>2019-09-10T15:10:24Z</time>
      </trkpt>
      <trkpt lat="50.80689" lon="1.71972">
        <ele>20</ele>
        <time>2019-09-10T15:10:37Z</time>
      </trkpt>
      <trkpt lat="50.80695" lon="1.71981">
        <ele>21</ele>
        <time>2019-09-10T15:10:38Z</time>
      </trkpt>
      <trkpt lat="50.80711" lon="1.71993">
        <ele>22</ele>
        <time>2019-09-10T15:10:41Z</time>
      </trkpt>
      <trkpt lat="50.80762" lon="1.72015">
        <ele>26</ele>
        <time>2019-09-10T15:10:51Z</time>
      </trkpt>
      <trkpt lat="50.80752" lon="1.72069">
        <ele>27</ele>
        <time>2019-09-10T15:10:57Z</time>
      </trkpt>
      <trkpt lat="50.80732" lon="1.72222">
        <ele>33</ele>
        <time>2019-09-10T15:11:15Z</time>
      </trkpt>
      <trkpt lat="50.80702" lon="1.72288">
        <ele>34</ele>
        <time>2019-09-10T15:11:24Z</time>
      </trkpt>
      <trkpt lat="50.80648" lon="1.72374">
        <ele>35</ele>
        <time>2019-09-10T15:11:38Z</time>
      </trkpt>
      <trkpt lat="50.80612" lon="1.72351">
        <ele>33</ele>
        <time>2019-09-10T15:11:44Z</time>
      </trkpt>
      <trkpt lat="50.80595" lon="1.72351">
        <ele>33</ele>
        <time>2019-09-10T15:11:47Z</time>
      </trkpt>
      <trkpt lat="50.80564" lon="1.72358">
        <ele>31</ele>
        <time>2019-09-10T15:11:53Z</time>
      </trkpt>
      <trkpt lat="50.80524" lon="1.72377">
        <ele>28</ele>
        <time>2019-09-10T15:12:00Z</time>
      </trkpt>
      <trkpt lat="50.80516" lon="1.72379">
        <ele>27</ele>
        <time>2019-09-10T15:12:02Z</time>
      </trkpt>
      <trkpt lat="50.80523" lon="1.72404">
        <ele>28</ele>
        <time>2019-09-10T15:12:05Z</time>
      </trkpt>
      <trkpt lat="50.80523" lon="1.72404">
        <ele>28</ele>
        <time>2019-09-10T15:12:05Z</time>
      </trkpt>
      <trkpt lat="50.8053" lon="1.72427">
        <ele>29</ele>
        <time>2019-09-10T15:12:08Z</time>
      </trkpt>
      <trkpt lat="50.80537" lon="1.72466">
        <ele>31</ele>
        <time>2019-09-10T15:12:12Z</time>
      </trkpt>
      <trkpt lat="50.80548" lon="1.72608">
        <ele>35</ele>
        <time>2019-09-10T15:12:29Z</time>
      </trkpt>
      <trkpt lat="50.80551" lon="1.72721">
        <ele>37</ele>
        <time>2019-09-10T15:12:41Z</time>
      </trkpt>
      <trkpt lat="50.80547" lon="1.72767">
        <ele>37</ele>
        <time>2019-09-10T15:12:46Z</time>
      </trkpt>
      <trkpt lat="50.80539" lon="1.72825">
        <ele>37</ele>
        <time>2019-09-10T15:12:53Z</time>
      </trkpt>
      <trkpt lat="50.80521" lon="1.72901">
        <ele>37</ele>
        <time>2019-09-10T15:13:02Z</time>
      </trkpt>
      <trkpt lat="50.80519" lon="1.72915">
        <ele>37</ele>
        <time>2019-09-10T15:13:04Z</time>
      </trkpt>
      <trkpt lat="50.80519" lon="1.72935">
        <ele>37</ele>
        <time>2019-09-10T15:13:06Z</time>
      </trkpt>
      <trkpt lat="50.80504" lon="1.73152">
        <ele>38</ele>
        <time>2019-09-10T15:13:31Z</time>
      </trkpt>
      <trkpt lat="50.8049" lon="1.73317">
        <ele>40</ele>
        <time>2019-09-10T15:13:49Z</time>
      </trkpt>
      <trkpt lat="50.80489" lon="1.73367">
        <ele>40</ele>
        <time>2019-09-10T15:13:55Z</time>
      </trkpt>
      <trkpt lat="50.80508" lon="1.73501">
        <ele>42</ele>
        <time>2019-09-10T15:14:10Z</time>
      </trkpt>
      <trkpt lat="50.80545" lon="1.73848">
        <ele>45</ele>
        <time>2019-09-10T15:14:50Z</time>
      </trkpt>
      <trkpt lat="50.80578" lon="1.73832">
        <ele>44</ele>
        <time>2019-09-10T15:14:56Z</time>
      </trkpt>
      <trkpt lat="50.80594" lon="1.73833">
        <ele>43</ele>
        <time>2019-09-10T15:14:59Z</time>
      </trkpt>
      <trkpt lat="50.806" lon="1.7384">
        <ele>43</ele>
        <time>2019-09-10T15:15:00Z</time>
      </trkpt>
      <trkpt lat="50.80609" lon="1.73854">
        <ele>43</ele>
        <time>2019-09-10T15:15:03Z</time>
      </trkpt>
      <trkpt lat="50.80652" lon="1.74016">
        <ele>47</ele>
        <time>2019-09-10T15:15:22Z</time>
      </trkpt>
      <trkpt lat="50.80665" lon="1.74046">
        <ele>48</ele>
        <time>2019-09-10T15:15:26Z</time>
      </trkpt>
      <trkpt lat="50.80678" lon="1.74068">
        <ele>48</ele>
        <time>2019-09-10T15:15:30Z</time>
      </trkpt>
      <trkpt lat="50.80715" lon="1.74108">
        <ele>49</ele>
        <time>2019-09-10T15:15:38Z</time>
      </trkpt>
      <trkpt lat="50.80768" lon="1.74153">
        <ele>50</ele>
        <time>2019-09-10T15:15:48Z</time>
      </trkpt>
      <trkpt lat="50.80768" lon="1.74153">
        <ele>50</ele>
        <time>2019-09-10T15:15:48Z</time>
      </trkpt>
      <trkpt lat="50.80871" lon="1.74246">
        <ele>49</ele>
        <time>2019-09-10T15:16:10Z</time>
      </trkpt>
      <trkpt lat="50.80887" lon="1.74266">
        <ele>48</ele>
        <time>2019-09-10T15:16:13Z</time>
      </trkpt>
      <trkpt lat="50.80897" lon="1.7429">
        <ele>48</ele>
        <time>2019-09-10T15:16:16Z</time>
      </trkpt>
      <trkpt lat="50.80903" lon="1.74317">
        <ele>48</ele>
        <time>2019-09-10T15:16:20Z</time>
      </trkpt>
      <trkpt lat="50.80915" lon="1.74429">
        <ele>46</ele>
        <time>2019-09-10T15:16:32Z</time>
      </trkpt>
      <trkpt lat="50.80921" lon="1.74524">
        <ele>41</ele>
        <time>2019-09-10T15:16:43Z</time>
      </trkpt>
      <trkpt lat="50.80934" lon="1.74622">
        <ele>37</ele>
        <time>2019-09-10T15:16:54Z</time>
      </trkpt>
      <trkpt lat="50.80951" lon="1.74682">
        <ele>36</ele>
        <time>2019-09-10T15:17:02Z</time>
      </trkpt>
      <trkpt lat="50.81117" lon="1.75005">
        <ele>27</ele>
        <time>2019-09-10T15:17:49Z</time>
      </trkpt>
      <trkpt lat="50.8113" lon="1.75077">
        <ele>31</ele>
        <time>2019-09-10T15:17:57Z</time>
      </trkpt>
      <trkpt lat="50.81146" lon="1.75249">
        <ele>35</ele>
        <time>2019-09-10T15:18:17Z</time>
      </trkpt>
      <trkpt lat="50.81157" lon="1.75525">
        <ele>39</ele>
        <time>2019-09-10T15:18:48Z</time>
      </trkpt>
      <trkpt lat="50.81161" lon="1.75596">
        <ele>40</ele>
        <time>2019-09-10T15:18:56Z</time>
      </trkpt>
      <trkpt lat="50.81177" lon="1.75679">
        <ele>38</ele>
        <time>2019-09-10T15:19:05Z</time>
      </trkpt>
      <trkpt lat="50.81205" lon="1.75763">
        <ele>37</ele>
        <time>2019-09-10T15:19:16Z</time>
      </trkpt>
      <trkpt lat="50.81373" lon="1.76078">
        <ele>38</ele>
        <time>2019-09-10T15:20:02Z</time>
      </trkpt>
      <trkpt lat="50.81408" lon="1.76139">
        <ele>38</ele>
        <time>2019-09-10T15:20:12Z</time>
      </trkpt>
      <trkpt lat="50.81423" lon="1.76149">
        <ele>38</ele>
        <time>2019-09-10T15:20:15Z</time>
      </trkpt>
      <trkpt lat="50.81468" lon="1.7617">
        <ele>40</ele>
        <time>2019-09-10T15:20:23Z</time>
      </trkpt>
      <trkpt lat="50.81538" lon="1.76222">
        <ele>45</ele>
        <time>2019-09-10T15:20:37Z</time>
      </trkpt>
      <trkpt lat="50.81551" lon="1.76233">
        <ele>45</ele>
        <time>2019-09-10T15:20:39Z</time>
      </trkpt>
      <trkpt lat="50.81562" lon="1.76248">
        <ele>44</ele>
        <time>2019-09-10T15:20:42Z</time>
      </trkpt>
      <trkpt lat="50.81593" lon="1.76297">
        <ele>47</ele>
        <time>2019-09-10T15:20:50Z</time>
      </trkpt>
      <trkpt lat="50.81603" lon="1.76319">
        <ele>48</ele>
        <time>2019-09-10T15:20:53Z</time>
      </trkpt>
      <trkpt lat="50.8161" lon="1.76342">
        <ele>49</ele>
        <time>2019-09-10T15:20:56Z</time>
      </trkpt>
      <trkpt lat="50.81615" lon="1.76363">
        <ele>50</ele>
        <time>2019-09-10T15:20:58Z</time>
      </trkpt>
      <trkpt lat="50.81617" lon="1.76387">
        <ele>52</ele>
        <time>2019-09-10T15:21:01Z</time>
      </trkpt>
      <trkpt lat="50.81616" lon="1.76444">
        <ele>54</ele>
        <time>2019-09-10T15:21:07Z</time>
      </trkpt>
      <trkpt lat="50.81606" lon="1.76504">
        <ele>55</ele>
        <time>2019-09-10T15:21:14Z</time>
      </trkpt>
      <trkpt lat="50.81602" lon="1.7654">
        <ele>56</ele>
        <time>2019-09-10T15:21:18Z</time>
      </trkpt>
      <trkpt lat="50.816" lon="1.76583">
        <ele>57</ele>
        <time>2019-09-10T15:21:23Z</time>
      </trkpt>
      <trkpt lat="50.81604" lon="1.76619">
        <ele>59</ele>
        <time>2019-09-10T15:21:27Z</time>
      </trkpt>
      <trkpt lat="50.81618" lon="1.76611">
        <ele>59</ele>
        <time>2019-09-10T15:21:30Z</time>
      </trkpt>
      <trkpt lat="50.81618" lon="1.76611">
        <ele>59</ele>
        <time>2019-09-10T15:21:30Z</time>
      </trkpt>
      <trkpt lat="50.81604" lon="1.76619">
        <ele>59</ele>
        <time>2019-09-10T15:21:33Z</time>
      </trkpt>
      <trkpt lat="50.81616" lon="1.76689">
        <ele>62</ele>
        <time>2019-09-10T15:21:41Z</time>
      </trkpt>
      <trkpt lat="50.81618" lon="1.7674">
        <ele>64</ele>
        <time>2019-09-10T15:21:47Z</time>
      </trkpt>
      <trkpt lat="50.81609" lon="1.76817">
        <ele>62</ele>
        <time>2019-09-10T15:21:55Z</time>
      </trkpt>
      <trkpt lat="50.8161" lon="1.76849">
        <ele>62</ele>
        <time>2019-09-10T15:21:59Z</time>
      </trkpt>
      <trkpt lat="50.81615" lon="1.76892">
        <ele>62</ele>
        <time>2019-09-10T15:22:04Z</time>
      </trkpt>
      <trkpt lat="50.81634" lon="1.7695">
        <ele>63</ele>
        <time>2019-09-10T15:22:11Z</time>
      </trkpt>
      <trkpt lat="50.81662" lon="1.77012">
        <ele>65</ele>
        <time>2019-09-10T15:22:20Z</time>
      </trkpt>
      <trkpt lat="50.81671" lon="1.77037">
        <ele>65</ele>
        <time>2019-09-10T15:22:23Z</time>
      </trkpt>
      <trkpt lat="50.81684" lon="1.77091">
        <ele>66</ele>
        <time>2019-09-10T15:22:30Z</time>
      </trkpt>
      <trkpt lat="50.81703" lon="1.77214">
        <ele>70</ele>
        <time>2019-09-10T15:22:44Z</time>
      </trkpt>
      <trkpt lat="50.81716" lon="1.77255">
        <ele>72</ele>
        <time>2019-09-10T15:22:49Z</time>
      </trkpt>
      <trkpt lat="50.81732" lon="1.77276">
        <ele>74</ele>
        <time>2019-09-10T15:22:53Z</time>
      </trkpt>
      <trkpt lat="50.81746" lon="1.7729">
        <ele>76</ele>
        <time>2019-09-10T15:22:56Z</time>
      </trkpt>
      <trkpt lat="50.81764" lon="1.77301">
        <ele>77</ele>
        <time>2019-09-10T15:22:59Z</time>
      </trkpt>
      <trkpt lat="50.81789" lon="1.77361">
        <ele>79</ele>
        <time>2019-09-10T15:23:07Z</time>
      </trkpt>
      <trkpt lat="50.81869" lon="1.77498">
        <ele>82</ele>
        <time>2019-09-10T15:23:28Z</time>
      </trkpt>
      <trkpt lat="50.81897" lon="1.77567">
        <ele>83</ele>
        <time>2019-09-10T15:23:37Z</time>
      </trkpt>
      <trkpt lat="50.81925" lon="1.77643">
        <ele>84</ele>
        <time>2019-09-10T15:23:47Z</time>
      </trkpt>
      <trkpt lat="50.81939" lon="1.77674">
        <ele>84</ele>
        <time>2019-09-10T15:23:51Z</time>
      </trkpt>
      <trkpt lat="50.81998" lon="1.77738">
        <ele>84</ele>
        <time>2019-09-10T15:24:04Z</time>
      </trkpt>
      <trkpt lat="50.82008" lon="1.77754">
        <ele>84</ele>
        <time>2019-09-10T15:24:07Z</time>
      </trkpt>
      <trkpt lat="50.82036" lon="1.77835">
        <ele>83</ele>
        <time>2019-09-10T15:24:17Z</time>
      </trkpt>
      <trkpt lat="50.82049" lon="1.7787">
        <ele>81</ele>
        <time>2019-09-10T15:24:22Z</time>
      </trkpt>
      <trkpt lat="50.82065" lon="1.77897">
        <ele>81</ele>
        <time>2019-09-10T15:24:26Z</time>
      </trkpt>
      <trkpt lat="50.82083" lon="1.77917">
        <ele>82</ele>
        <time>2019-09-10T15:24:30Z</time>
      </trkpt>
      <trkpt lat="50.82106" lon="1.77951">
        <ele>81</ele>
        <time>2019-09-10T15:24:35Z</time>
      </trkpt>
      <trkpt lat="50.82126" lon="1.77989">
        <ele>81</ele>
        <time>2019-09-10T15:24:41Z</time>
      </trkpt>
      <trkpt lat="50.82132" lon="1.78021">
        <ele>79</ele>
        <time>2019-09-10T15:24:45Z</time>
      </trkpt>
      <trkpt lat="50.82136" lon="1.78055">
        <ele>77</ele>
        <time>2019-09-10T15:24:49Z</time>
      </trkpt>
      <trkpt lat="50.82126" lon="1.78085">
        <ele>74</ele>
        <time>2019-09-10T15:24:52Z</time>
      </trkpt>
      <trkpt lat="50.82126" lon="1.78085">
        <ele>74</ele>
        <time>2019-09-10T15:24:52Z</time>
      </trkpt>
      <trkpt lat="50.8212" lon="1.78103">
        <ele>73</ele>
        <time>2019-09-10T15:24:55Z</time>
      </trkpt>
      <trkpt lat="50.82114" lon="1.78113">
        <ele>72</ele>
        <time>2019-09-10T15:24:56Z</time>
      </trkpt>
      <trkpt lat="50.82105" lon="1.78111">
        <ele>71</ele>
        <time>2019-09-10T15:24:58Z</time>
      </trkpt>
      <trkpt lat="50.82099" lon="1.78105">
        <ele>70</ele>
        <time>2019-09-10T15:24:59Z</time>
      </trkpt>
      <trkpt lat="50.82073" lon="1.78062">
        <ele>70</ele>
        <time>2019-09-10T15:25:06Z</time>
      </trkpt>
      <trkpt lat="50.8203" lon="1.78036">
        <ele>67</ele>
        <time>2019-09-10T15:25:14Z</time>
      </trkpt>
      <trkpt lat="50.82015" lon="1.78034">
        <ele>66</ele>
        <time>2019-09-10T15:25:17Z</time>
      </trkpt>
      <trkpt lat="50.82003" lon="1.78039">
        <ele>64</ele>
        <time>2019-09-10T15:25:19Z</time>
      </trkpt>
      <trkpt lat="50.81996" lon="1.78045">
        <ele>64</ele>
        <time>2019-09-10T15:25:20Z</time>
      </trkpt>
      <trkpt lat="50.81946" lon="1.78102">
        <ele>61</ele>
        <time>2019-09-10T15:25:31Z</time>
      </trkpt>
      <trkpt lat="50.81927" lon="1.7812">
        <ele>60</ele>
        <time>2019-09-10T15:25:35Z</time>
      </trkpt>
      <trkpt lat="50.81875" lon="1.78155">
        <ele>61</ele>
        <time>2019-09-10T15:25:45Z</time>
      </trkpt>
      <trkpt lat="50.81867" lon="1.78157">
        <ele>61</ele>
        <time>2019-09-10T15:25:47Z</time>
      </trkpt>
      <trkpt lat="50.81851" lon="1.78156">
        <ele>61</ele>
        <time>2019-09-10T15:25:49Z</time>
      </trkpt>
      <trkpt lat="50.81833" lon="1.78149">
        <ele>61</ele>
        <time>2019-09-10T15:25:53Z</time>
      </trkpt>
      <trkpt lat="50.8183" lon="1.78112">
        <ele>60</ele>
        <time>2019-09-10T15:25:57Z</time>
      </trkpt>
      <trkpt lat="50.81826" lon="1.78081">
        <ele>59</ele>
        <time>2019-09-10T15:26:01Z</time>
      </trkpt>
      <trkpt lat="50.81816" lon="1.78054">
        <ele>59</ele>
        <time>2019-09-10T15:26:04Z</time>
      </trkpt>
      <trkpt lat="50.81765" lon="1.77993">
        <ele>59</ele>
        <time>2019-09-10T15:26:15Z</time>
      </trkpt>
      <trkpt lat="50.8174" lon="1.77954">
        <ele>59</ele>
        <time>2019-09-10T15:26:22Z</time>
      </trkpt>
      <trkpt lat="50.817" lon="1.77928">
        <ele>60</ele>
        <time>2019-09-10T15:26:29Z</time>
      </trkpt>
      <trkpt lat="50.81651" lon="1.77936">
        <ele>61</ele>
        <time>2019-09-10T15:26:38Z</time>
      </trkpt>
      <trkpt lat="50.81633" lon="1.77943">
        <ele>61</ele>
        <time>2019-09-10T15:26:41Z</time>
      </trkpt>
      <trkpt lat="50.81633" lon="1.77943">
        <ele>61</ele>
        <time>2019-09-10T15:26:41Z</time>
      </trkpt>
      <trkpt lat="50.81512" lon="1.77992">
        <ele>63</ele>
        <time>2019-09-10T15:27:04Z</time>
      </trkpt>
      <trkpt lat="50.8149" lon="1.77997">
        <ele>63</ele>
        <time>2019-09-10T15:27:08Z</time>
      </trkpt>
      <trkpt lat="50.81482" lon="1.78035">
        <ele>63</ele>
        <time>2019-09-10T15:27:12Z</time>
      </trkpt>
      <trkpt lat="50.81493" lon="1.78098">
        <ele>62</ele>
        <time>2019-09-10T15:27:19Z</time>
      </trkpt>
      <trkpt lat="50.81503" lon="1.78129">
        <ele>63</ele>
        <time>2019-09-10T15:27:23Z</time>
      </trkpt>
      <trkpt lat="50.81522" lon="1.78149">
        <ele>63</ele>
        <time>2019-09-10T15:27:27Z</time>
      </trkpt>
      <trkpt lat="50.81547" lon="1.78168">
        <ele>64</ele>
        <time>2019-09-10T15:27:32Z</time>
      </trkpt>
      <trkpt lat="50.81578" lon="1.7821">
        <ele>66</ele>
        <time>2019-09-10T15:27:40Z</time>
      </trkpt>
      <trkpt lat="50.81657" lon="1.78303">
        <ele>71</ele>
        <time>2019-09-10T15:27:57Z</time>
      </trkpt>
      <trkpt lat="50.81643" lon="1.78331">
        <ele>71</ele>
        <time>2019-09-10T15:28:01Z</time>
      </trkpt>
      <trkpt lat="50.81627" lon="1.7851">
        <ele>76</ele>
        <time>2019-09-10T15:28:21Z</time>
      </trkpt>
      <trkpt lat="50.81627" lon="1.78551">
        <ele>77</ele>
        <time>2019-09-10T15:28:26Z</time>
      </trkpt>
      <trkpt lat="50.81635" lon="1.78601">
        <ele>78</ele>
        <time>2019-09-10T15:28:32Z</time>
      </trkpt>
      <trkpt lat="50.81702" lon="1.78842">
        <ele>86</ele>
        <time>2019-09-10T15:29:01Z</time>
      </trkpt>
      <trkpt lat="50.81706" lon="1.78905">
        <ele>88</ele>
        <time>2019-09-10T15:29:09Z</time>
      </trkpt>
      <trkpt lat="50.81704" lon="1.78969">
        <ele>89</ele>
        <time>2019-09-10T15:29:16Z</time>
      </trkpt>
      <trkpt lat="50.81687" lon="1.79044">
        <ele>90</ele>
        <time>2019-09-10T15:29:25Z</time>
      </trkpt>
      <trkpt lat="50.81647" lon="1.79126">
        <ele>91</ele>
        <time>2019-09-10T15:29:36Z</time>
      </trkpt>
      <trkpt lat="50.8157" lon="1.79297">
        <ele>93</ele>
        <time>2019-09-10T15:30:00Z</time>
      </trkpt>
      <trkpt lat="50.81519" lon="1.79448">
        <ele>93</ele>
        <time>2019-09-10T15:30:19Z</time>
      </trkpt>
      <trkpt lat="50.81494" lon="1.79469">
        <ele>93</ele>
        <time>2019-09-10T15:30:24Z</time>
      </trkpt>
      <trkpt lat="50.81408" lon="1.79532">
        <ele>92</ele>
        <time>2019-09-10T15:30:41Z</time>
      </trkpt>
      <trkpt lat="50.81347" lon="1.79596">
        <ele>91</ele>
        <time>2019-09-10T15:30:54Z</time>
      </trkpt>
      <trkpt lat="50.8134" lon="1.796">
        <ele>91</ele>
        <time>2019-09-10T15:30:56Z</time>
      </trkpt>
      <trkpt lat="50.81334" lon="1.79601">
        <ele>90</ele>
        <time>2019-09-10T15:30:57Z</time>
      </trkpt>
      <trkpt lat="50.81289" lon="1.79596">
        <ele>89</ele>
        <time>2019-09-10T15:31:05Z</time>
      </trkpt>
      <trkpt lat="50.81282" lon="1.79593">
        <ele>89</ele>
        <time>2019-09-10T15:31:06Z</time>
      </trkpt>
      <trkpt lat="50.81267" lon="1.79583">
        <ele>88</ele>
        <time>2019-09-10T15:31:09Z</time>
      </trkpt>
      <trkpt lat="50.81252" lon="1.79568">
        <ele>88</ele>
        <time>2019-09-10T15:31:12Z</time>
      </trkpt>
      <trkpt lat="50.81236" lon="1.7957">
        <ele>88</ele>
        <time>2019-09-10T15:31:15Z</time>
      </trkpt>
      <trkpt lat="50.81172" lon="1.79606">
        <ele>87</ele>
        <time>2019-09-10T15:31:27Z</time>
      </trkpt>
      <trkpt lat="50.81144" lon="1.7961">
        <ele>87</ele>
        <time>2019-09-10T15:31:32Z</time>
      </trkpt>
      <trkpt lat="50.81118" lon="1.79608">
        <ele>86</ele>
        <time>2019-09-10T15:31:37Z</time>
      </trkpt>
      <trkpt lat="50.81096" lon="1.79604">
        <ele>86</ele>
        <time>2019-09-10T15:31:40Z</time>
      </trkpt>
      <trkpt lat="50.81046" lon="1.79608">
        <ele>84</ele>
        <time>2019-09-10T15:31:49Z</time>
      </trkpt>
      <trkpt lat="50.81019" lon="1.79607">
        <ele>82</ele>
        <time>2019-09-10T15:31:54Z</time>
      </trkpt>
      <trkpt lat="50.80986" lon="1.79604">
        <ele>81</ele>
        <time>2019-09-10T15:32:00Z</time>
      </trkpt>
      <trkpt lat="50.80956" lon="1.79616">
        <ele>82</ele>
        <time>2019-09-10T15:32:06Z</time>
      </trkpt>
      <trkpt lat="50.80921" lon="1.79636">
        <ele>83</ele>
        <time>2019-09-10T15:32:12Z</time>
      </trkpt>
      <trkpt lat="50.80836" lon="1.7971">
        <ele>91</ele>
        <time>2019-09-10T15:32:29Z</time>
      </trkpt>
      <trkpt lat="50.80823" lon="1.79726">
        <ele>91</ele>
        <time>2019-09-10T15:32:32Z</time>
      </trkpt>
      <trkpt lat="50.80746" lon="1.79776">
        <ele>92</ele>
        <time>2019-09-10T15:32:47Z</time>
      </trkpt>
      <trkpt lat="50.80725" lon="1.79793">
        <ele>91</ele>
        <time>2019-09-10T15:32:51Z</time>
      </trkpt>
      <trkpt lat="50.80668" lon="1.79789">
        <ele>89</ele>
        <time>2019-09-10T15:33:02Z</time>
      </trkpt>
      <trkpt lat="50.80581" lon="1.79761">
        <ele>85</ele>
        <time>2019-09-10T15:33:17Z</time>
      </trkpt>
      <trkpt lat="50.804" lon="1.79753">
        <ele>77</ele>
        <time>2019-09-10T15:33:50Z</time>
      </trkpt>
      <trkpt lat="50.80346" lon="1.7976">
        <ele>76</ele>
        <time>2019-09-10T15:33:59Z</time>
      </trkpt>
      <trkpt lat="50.80264" lon="1.79778">
        <ele>74</ele>
        <time>2019-09-10T15:34:14Z</time>
      </trkpt>
      <trkpt lat="50.80097" lon="1.79821">
        <ele>68</ele>
        <time>2019-09-10T15:34:44Z</time>
      </trkpt>
      <trkpt lat="50.79932" lon="1.79852">
        <ele>57</ele>
        <time>2019-09-10T15:35:14Z</time>
      </trkpt>
      <trkpt lat="50.79895" lon="1.79849">
        <ele>54</ele>
        <time>2019-09-10T15:35:20Z</time>
      </trkpt>
      <trkpt lat="50.79874" lon="1.7984">
        <ele>52</ele>
        <time>2019-09-10T15:35:24Z</time>
      </trkpt>
      <trkpt lat="50.79843" lon="1.79846">
        <ele>50</ele>
        <time>2019-09-10T15:35:30Z</time>
      </trkpt>
      <trkpt lat="50.79787" lon="1.79871">
        <ele>47</ele>
        <time>2019-09-10T15:35:40Z</time>
      </trkpt>
      <trkpt lat="50.79759" lon="1.79886">
        <ele>47</ele>
        <time>2019-09-10T15:35:45Z</time>
      </trkpt>
      <trkpt lat="50.79739" lon="1.79892">
        <ele>47</ele>
        <time>2019-09-10T15:35:49Z</time>
      </trkpt>
      <trkpt lat="50.79713" lon="1.79881">
        <ele>48</ele>
        <time>2019-09-10T15:35:54Z</time>
      </trkpt>
      <trkpt lat="50.79692" lon="1.79862">
        <ele>48</ele>
        <time>2019-09-10T15:35:58Z</time>
      </trkpt>
      <trkpt lat="50.79683" lon="1.79848">
        <ele>48</ele>
        <time>2019-09-10T15:36:00Z</time>
      </trkpt>
      <trkpt lat="50.79657" lon="1.7985">
        <ele>50</ele>
        <time>2019-09-10T15:36:05Z</time>
      </trkpt>
      <trkpt lat="50.79591" lon="1.79882">
        <ele>53</ele>
        <time>2019-09-10T15:36:17Z</time>
      </trkpt>
      <trkpt lat="50.79526" lon="1.79882">
        <ele>56</ele>
        <time>2019-09-10T15:36:29Z</time>
      </trkpt>
      <trkpt lat="50.79418" lon="1.7986">
        <ele>63</ele>
        <time>2019-09-10T15:36:48Z</time>
      </trkpt>
      <trkpt lat="50.79326" lon="1.79825">
        <ele>67</ele>
        <time>2019-09-10T15:37:05Z</time>
      </trkpt>
      <trkpt lat="50.79275" lon="1.79794">
        <ele>70</ele>
        <time>2019-09-10T15:37:15Z</time>
      </trkpt>
      <trkpt lat="50.79184" lon="1.79764">
        <ele>70</ele>
        <time>2019-09-10T15:37:31Z</time>
      </trkpt>
      <trkpt lat="50.79156" lon="1.79765">
        <ele>69</ele>
        <time>2019-09-10T15:37:36Z</time>
      </trkpt>
      <trkpt lat="50.791" lon="1.79921">
        <ele>68</ele>
        <time>2019-09-10T15:37:56Z</time>
      </trkpt>
      <trkpt lat="50.791" lon="1.79921">
        <ele>68</ele>
        <time>2019-09-10T15:37:56Z</time>
      </trkpt>
      <trkpt lat="50.79082" lon="1.79968">
        <ele>66</ele>
        <time>2019-09-10T15:38:02Z</time>
      </trkpt>
      <trkpt lat="50.79059" lon="1.79866">
        <ele>62</ele>
        <time>2019-09-10T15:38:15Z</time>
      </trkpt>
      <trkpt lat="50.79056" lon="1.79705">
        <ele>57</ele>
        <time>2019-09-10T15:38:33Z</time>
      </trkpt>
      <trkpt lat="50.79047" lon="1.79623">
        <ele>54</ele>
        <time>2019-09-10T15:38:42Z</time>
      </trkpt>
      <trkpt lat="50.79048" lon="1.79421">
        <ele>51</ele>
        <time>2019-09-10T15:39:05Z</time>
      </trkpt>
      <trkpt lat="50.79043" lon="1.79395">
        <ele>51</ele>
        <time>2019-09-10T15:39:08Z</time>
      </trkpt>
      <trkpt lat="50.79021" lon="1.79363">
        <ele>50</ele>
        <time>2019-09-10T15:39:13Z</time>
      </trkpt>
      <trkpt lat="50.78997" lon="1.79342">
        <ele>49</ele>
        <time>2019-09-10T15:39:18Z</time>
      </trkpt>
      <trkpt lat="50.78972" lon="1.79326">
        <ele>50</ele>
        <time>2019-09-10T15:39:23Z</time>
      </trkpt>
      <trkpt lat="50.78904" lon="1.79301">
        <ele>54</ele>
        <time>2019-09-10T15:39:35Z</time>
      </trkpt>
      <trkpt lat="50.78861" lon="1.79275">
        <ele>55</ele>
        <time>2019-09-10T15:39:44Z</time>
      </trkpt>
      <trkpt lat="50.78849" lon="1.79256">
        <ele>54</ele>
        <time>2019-09-10T15:39:47Z</time>
      </trkpt>
      <trkpt lat="50.78844" lon="1.7922">
        <ele>53</ele>
        <time>2019-09-10T15:39:51Z</time>
      </trkpt>
      <trkpt lat="50.78839" lon="1.79098">
        <ele>48</ele>
        <time>2019-09-10T15:40:04Z</time>
      </trkpt>
      <trkpt lat="50.78836" lon="1.79057">
        <ele>47</ele>
        <time>2019-09-10T15:40:09Z</time>
      </trkpt>
      <trkpt lat="50.78773" lon="1.78682">
        <ele>41</ele>
        <time>2019-09-10T15:40:53Z</time>
      </trkpt>
      <trkpt lat="50.78759" lon="1.78646">
        <ele>41</ele>
        <time>2019-09-10T15:40:57Z</time>
      </trkpt>
      <trkpt lat="50.78729" lon="1.7862">
        <ele>40</ele>
        <time>2019-09-10T15:41:04Z</time>
      </trkpt>
      <trkpt lat="50.78639" lon="1.78576">
        <ele>38</ele>
        <time>2019-09-10T15:41:20Z</time>
      </trkpt>
      <trkpt lat="50.78547" lon="1.78517">
        <ele>40</ele>
        <time>2019-09-10T15:41:38Z</time>
      </trkpt>
      <trkpt lat="50.78461" lon="1.78489">
        <ele>43</ele>
        <time>2019-09-10T15:41:54Z</time>
      </trkpt>
      <trkpt lat="50.7843" lon="1.78471">
        <ele>44</ele>
        <time>2019-09-10T15:42:00Z</time>
      </trkpt>
      <trkpt lat="50.78394" lon="1.78437">
        <ele>45</ele>
        <time>2019-09-10T15:42:07Z</time>
      </trkpt>
      <trkpt lat="50.78169" lon="1.78326">
        <ele>52</ele>
        <time>2019-09-10T15:42:49Z</time>
      </trkpt>
      <trkpt lat="50.78138" lon="1.78306">
        <ele>51</ele>
        <time>2019-09-10T15:42:55Z</time>
      </trkpt>
      <trkpt lat="50.78055" lon="1.78199">
        <ele>48</ele>
        <time>2019-09-10T15:43:14Z</time>
      </trkpt>
      <trkpt lat="50.77999" lon="1.782">
        <ele>46</ele>
        <time>2019-09-10T15:43:24Z</time>
      </trkpt>
      <trkpt lat="50.77893" lon="1.78197">
        <ele>46</ele>
        <time>2019-09-10T15:43:43Z</time>
      </trkpt>
      <trkpt lat="50.77767" lon="1.78283">
        <ele>46</ele>
        <time>2019-09-10T15:44:07Z</time>
      </trkpt>
      <trkpt lat="50.77689" lon="1.78341">
        <ele>46</ele>
        <time>2019-09-10T15:44:22Z</time>
      </trkpt>
      <trkpt lat="50.77598" lon="1.78374">
        <ele>43</ele>
        <time>2019-09-10T15:44:39Z</time>
      </trkpt>
      <trkpt lat="50.77477" lon="1.78442">
        <ele>42</ele>
        <time>2019-09-10T15:45:02Z</time>
      </trkpt>
      <trkpt lat="50.7746" lon="1.7845">
        <ele>42</ele>
        <time>2019-09-10T15:45:05Z</time>
      </trkpt>
      <trkpt lat="50.77378" lon="1.78464">
        <ele>44</ele>
        <time>2019-09-10T15:45:20Z</time>
      </trkpt>
      <trkpt lat="50.7726" lon="1.78504">
        <ele>46</ele>
        <time>2019-09-10T15:45:41Z</time>
      </trkpt>
      <trkpt lat="50.77066" lon="1.78534">
        <ele>46</ele>
        <time>2019-09-10T15:46:16Z</time>
      </trkpt>
      <trkpt lat="50.77066" lon="1.78534">
        <ele>46</ele>
        <time>2019-09-10T15:46:16Z</time>
      </trkpt>
      <trkpt lat="50.77029" lon="1.78539">
        <ele>46</ele>
        <time>2019-09-10T15:46:23Z</time>
      </trkpt>
      <trkpt lat="50.7698" lon="1.7855">
        <ele>47</ele>
        <time>2019-09-10T15:46:31Z</time>
      </trkpt>
      <trkpt lat="50.7694" lon="1.78556">
        <ele>47</ele>
        <time>2019-09-10T15:46:39Z</time>
      </trkpt>
      <trkpt lat="50.76836" lon="1.7856">
        <ele>46</ele>
        <time>2019-09-10T15:46:57Z</time>
      </trkpt>
      <trkpt lat="50.76732" lon="1.78543">
        <ele>43</ele>
        <time>2019-09-10T15:47:16Z</time>
      </trkpt>
      <trkpt lat="50.76657" lon="1.78527">
        <ele>42</ele>
        <time>2019-09-10T15:47:29Z</time>
      </trkpt>
      <trkpt lat="50.76483" lon="1.78496">
        <ele>45</ele>
        <time>2019-09-10T15:48:00Z</time>
      </trkpt>
      <trkpt lat="50.76408" lon="1.78487">
        <ele>47</ele>
        <time>2019-09-10T15:48:14Z</time>
      </trkpt>
      <trkpt lat="50.76378" lon="1.78404">
        <ele>46</ele>
        <time>2019-09-10T15:48:24Z</time>
      </trkpt>
      <trkpt lat="50.76301" lon="1.7825">
        <ele>43</ele>
        <time>2019-09-10T15:48:46Z</time>
      </trkpt>
      <trkpt lat="50.76159" lon="1.78022">
        <ele>44</ele>
        <time>2019-09-10T15:49:22Z</time>
      </trkpt>
      <trkpt lat="50.76077" lon="1.77845">
        <ele>45</ele>
        <time>2019-09-10T15:49:47Z</time>
      </trkpt>
      <trkpt lat="50.7605" lon="1.77838">
        <ele>46</ele>
        <time>2019-09-10T15:49:52Z</time>
      </trkpt>
      <trkpt lat="50.76009" lon="1.77771">
        <ele>47</ele>
        <time>2019-09-10T15:50:03Z</time>
      </trkpt>
      <trkpt lat="50.75969" lon="1.77719">
        <ele>48</ele>
        <time>2019-09-10T15:50:12Z</time>
      </trkpt>
      <trkpt lat="50.75732" lon="1.77529">
        <ele>44</ele>
        <time>2019-09-10T15:50:59Z</time>
      </trkpt>
      <trkpt lat="50.75703" lon="1.77528">
        <ele>44</ele>
        <time>2019-09-10T15:51:04Z</time>
      </trkpt>
      <trkpt lat="50.75661" lon="1.77542">
        <ele>43</ele>
        <time>2019-09-10T15:51:12Z</time>
      </trkpt>
      <trkpt lat="50.75619" lon="1.77544">
        <ele>41</ele>
        <time>2019-09-10T15:51:19Z</time>
      </trkpt>
      <trkpt lat="50.75496" lon="1.77404">
        <ele>37</ele>
        <time>2019-09-10T15:51:46Z</time>
      </trkpt>
      <trkpt lat="50.75427" lon="1.77177">
        <ele>38</ele>
        <time>2019-09-10T15:52:15Z</time>
      </trkpt>
      <trkpt lat="50.75395" lon="1.77119">
        <ele>38</ele>
        <time>2019-09-10T15:52:23Z</time>
      </trkpt>
      <trkpt lat="50.75307" lon="1.77038">
        <ele>43</ele>
        <time>2019-09-10T15:52:41Z</time>
      </trkpt>
      <trkpt lat="50.75293" lon="1.77015">
        <ele>43</ele>
        <time>2019-09-10T15:52:45Z</time>
      </trkpt>
      <trkpt lat="50.75245" lon="1.76965">
        <ele>46</ele>
        <time>2019-09-10T15:52:55Z</time>
      </trkpt>
      <trkpt lat="50.75228" lon="1.76937">
        <ele>47</ele>
        <time>2019-09-10T15:53:00Z</time>
      </trkpt>
      <trkpt lat="50.75224" lon="1.76913">
        <ele>47</ele>
        <time>2019-09-10T15:53:02Z</time>
      </trkpt>
      <trkpt lat="50.75224" lon="1.76812">
        <ele>47</ele>
        <time>2019-09-10T15:53:14Z</time>
      </trkpt>
      <trkpt lat="50.75147" lon="1.76592">
        <ele>48</ele>
        <time>2019-09-10T15:53:42Z</time>
      </trkpt>
      <trkpt lat="50.75079" lon="1.76355">
        <ele>47</ele>
        <time>2019-09-10T15:54:11Z</time>
      </trkpt>
      <trkpt lat="50.75009" lon="1.76137">
        <ele>43</ele>
        <time>2019-09-10T15:54:39Z</time>
      </trkpt>
      <trkpt lat="50.74978" lon="1.76078">
        <ele>42</ele>
        <time>2019-09-10T15:54:48Z</time>
      </trkpt>
      <trkpt lat="50.7496" lon="1.76009">
        <ele>42</ele>
        <time>2019-09-10T15:54:56Z</time>
      </trkpt>
      <trkpt lat="50.74926" lon="1.75843">
        <ele>40</ele>
        <time>2019-09-10T15:55:16Z</time>
      </trkpt>
      <trkpt lat="50.74913" lon="1.75646">
        <ele>40</ele>
        <time>2019-09-10T15:55:38Z</time>
      </trkpt>
      <trkpt lat="50.74911" lon="1.75561">
        <ele>39</ele>
        <time>2019-09-10T15:55:47Z</time>
      </trkpt>
      <trkpt lat="50.74888" lon="1.75591">
        <ele>37</ele>
        <time>2019-09-10T15:55:53Z</time>
      </trkpt>
      <trkpt lat="50.74845" lon="1.75658">
        <ele>36</ele>
        <time>2019-09-10T15:56:03Z</time>
      </trkpt>
      <trkpt lat="50.74831" lon="1.75696">
        <ele>36</ele>
        <time>2019-09-10T15:56:08Z</time>
      </trkpt>
      <trkpt lat="50.74806" lon="1.75798">
        <ele>35</ele>
        <time>2019-09-10T15:56:21Z</time>
      </trkpt>
      <trkpt lat="50.74796" lon="1.75826">
        <ele>35</ele>
        <time>2019-09-10T15:56:24Z</time>
      </trkpt>
      <trkpt lat="50.7478" lon="1.75838">
        <ele>36</ele>
        <time>2019-09-10T15:56:28Z</time>
      </trkpt>
      <trkpt lat="50.74773" lon="1.75841">
        <ele>36</ele>
        <time>2019-09-10T15:56:29Z</time>
      </trkpt>
      <trkpt lat="50.74665" lon="1.75862">
        <ele>36</ele>
        <time>2019-09-10T15:56:48Z</time>
      </trkpt>
      <trkpt lat="50.74594" lon="1.75888">
        <ele>36</ele>
        <time>2019-09-10T15:57:01Z</time>
      </trkpt>
      <trkpt lat="50.74594" lon="1.75888">
        <ele>36</ele>
        <time>2019-09-10T15:57:01Z</time>
      </trkpt>
      <trkpt lat="50.74575" lon="1.75896">
        <ele>36</ele>
        <time>2019-09-10T15:57:05Z</time>
      </trkpt>
      <trkpt lat="50.74511" lon="1.75899">
        <ele>36</ele>
        <time>2019-09-10T15:57:16Z</time>
      </trkpt>
      <trkpt lat="50.74396" lon="1.75886">
        <ele>37</ele>
        <time>2019-09-10T15:57:37Z</time>
      </trkpt>
      <trkpt lat="50.74386" lon="1.75882">
        <ele>37</ele>
        <time>2019-09-10T15:57:38Z</time>
      </trkpt>
      <trkpt lat="50.7439" lon="1.75861">
        <ele>37</ele>
        <time>2019-09-10T15:57:41Z</time>
      </trkpt>
      <trkpt lat="50.7445" lon="1.75794">
        <ele>36</ele>
        <time>2019-09-10T15:57:54Z</time>
      </trkpt>
      <trkpt lat="50.74463" lon="1.75775">
        <ele>36</ele>
        <time>2019-09-10T15:57:57Z</time>
      </trkpt>
      <trkpt lat="50.74474" lon="1.75745">
        <ele>36</ele>
        <time>2019-09-10T15:58:01Z</time>
      </trkpt>
      <trkpt lat="50.74497" lon="1.75668">
        <ele>38</ele>
        <time>2019-09-10T15:58:11Z</time>
      </trkpt>
      <trkpt lat="50.74509" lon="1.75613">
        <ele>39</ele>
        <time>2019-09-10T15:58:17Z</time>
      </trkpt>
      <trkpt lat="50.74487" lon="1.75406">
        <ele>41</ele>
        <time>2019-09-10T15:58:41Z</time>
      </trkpt>
      <trkpt lat="50.7438" lon="1.7445">
        <ele>40</ele>
        <time>2019-09-10T16:00:30Z</time>
      </trkpt>
      <trkpt lat="50.74383" lon="1.74404">
        <ele>40</ele>
        <time>2019-09-10T16:00:35Z</time>
      </trkpt>
      <trkpt lat="50.74394" lon="1.7436">
        <ele>40</ele>
        <time>2019-09-10T16:00:41Z</time>
      </trkpt>
      <trkpt lat="50.74463" lon="1.74136">
        <ele>38</ele>
        <time>2019-09-10T16:01:09Z</time>
      </trkpt>
      <trkpt lat="50.74467" lon="1.74106">
        <ele>38</ele>
        <time>2019-09-10T16:01:12Z</time>
      </trkpt>
      <trkpt lat="50.74448" lon="1.73797">
        <ele>35</ele>
        <time>2019-09-10T16:01:47Z</time>
      </trkpt>
      <trkpt lat="50.74442" lon="1.73748">
        <ele>34</ele>
        <time>2019-09-10T16:01:53Z</time>
      </trkpt>
      <trkpt lat="50.74432" lon="1.73706">
        <ele>35</ele>
        <time>2019-09-10T16:01:58Z</time>
      </trkpt>
      <trkpt lat="50.74428" lon="1.7368">
        <ele>35</ele>
        <time>2019-09-10T16:02:01Z</time>
      </trkpt>
      <trkpt lat="50.74422" lon="1.73533">
        <ele>35</ele>
        <time>2019-09-10T16:02:17Z</time>
      </trkpt>
      <trkpt lat="50.74422" lon="1.73509">
        <ele>36</ele>
        <time>2019-09-10T16:02:20Z</time>
      </trkpt>
      <trkpt lat="50.7443" lon="1.73441">
        <ele>35</ele>
        <time>2019-09-10T16:02:28Z</time>
      </trkpt>
      <trkpt lat="50.74438" lon="1.73401">
        <ele>34</ele>
        <time>2019-09-10T16:02:33Z</time>
      </trkpt>
      <trkpt lat="50.74482" lon="1.73274">
        <ele>31</ele>
        <time>2019-09-10T16:02:49Z</time>
      </trkpt>
      <trkpt lat="50.74491" lon="1.73255">
        <ele>31</ele>
        <time>2019-09-10T16:02:51Z</time>
      </trkpt>
      <trkpt lat="50.745" lon="1.7323">
        <ele>31</ele>
        <time>2019-09-10T16:02:55Z</time>
      </trkpt>
      <trkpt lat="50.74505" lon="1.73209">
        <ele>31</ele>
        <time>2019-09-10T16:02:57Z</time>
      </trkpt>
      <trkpt lat="50.74509" lon="1.73148">
        <ele>32</ele>
        <time>2019-09-10T16:03:04Z</time>
      </trkpt>
      <trkpt lat="50.74536" lon="1.73063">
        <ele>34</ele>
        <time>2019-09-10T16:03:15Z</time>
      </trkpt>
      <trkpt lat="50.74571" lon="1.7297">
        <ele>35</ele>
        <time>2019-09-10T16:03:27Z</time>
      </trkpt>
      <trkpt lat="50.74596" lon="1.72918">
        <ele>35</ele>
        <time>2019-09-10T16:03:34Z</time>
      </trkpt>
      <trkpt lat="50.74608" lon="1.72904">
        <ele>35</ele>
        <time>2019-09-10T16:03:37Z</time>
      </trkpt>
      <trkpt lat="50.7462" lon="1.72893">
        <ele>34</ele>
        <time>2019-09-10T16:03:40Z</time>
      </trkpt>
      <trkpt lat="50.7472" lon="1.72855">
        <ele>30</ele>
        <time>2019-09-10T16:03:58Z</time>
      </trkpt>
      <trkpt lat="50.74749" lon="1.72838">
        <ele>28</ele>
        <time>2019-09-10T16:04:03Z</time>
      </trkpt>
      <trkpt lat="50.74912" lon="1.72728">
        <ele>29</ele>
        <time>2019-09-10T16:04:35Z</time>
      </trkpt>
      <trkpt lat="50.74979" lon="1.72672">
        <ele>29</ele>
        <time>2019-09-10T16:04:48Z</time>
      </trkpt>
      <trkpt lat="50.75076" lon="1.72546">
        <ele>28</ele>
        <time>2019-09-10T16:05:11Z</time>
      </trkpt>
      <trkpt lat="50.75084" lon="1.72529">
        <ele>27</ele>
        <time>2019-09-10T16:05:13Z</time>
      </trkpt>
      <trkpt lat="50.7509" lon="1.7251">
        <ele>27</ele>
        <time>2019-09-10T16:05:15Z</time>
      </trkpt>
      <trkpt lat="50.75141" lon="1.72195">
        <ele>28</ele>
        <time>2019-09-10T16:05:52Z</time>
      </trkpt>
      <trkpt lat="50.75143" lon="1.7216">
        <ele>28</ele>
        <time>2019-09-10T16:05:56Z</time>
      </trkpt>
      <trkpt lat="50.75103" lon="1.71692">
        <ele>26</ele>
        <time>2019-09-10T16:06:49Z</time>
      </trkpt>
      <trkpt lat="50.75103" lon="1.71668">
        <ele>26</ele>
        <time>2019-09-10T16:06:52Z</time>
      </trkpt>
      <trkpt lat="50.7511" lon="1.71631">
        <ele>26</ele>
        <time>2019-09-10T16:06:56Z</time>
      </trkpt>
      <trkpt lat="50.75175" lon="1.71495">
        <ele>26</ele>
        <time>2019-09-10T16:07:15Z</time>
      </trkpt>
      <trkpt lat="50.75202" lon="1.71419">
        <ele>25</ele>
        <time>2019-09-10T16:07:25Z</time>
      </trkpt>
      <trkpt lat="50.75255" lon="1.7121">
        <ele>25</ele>
        <time>2019-09-10T16:07:51Z</time>
      </trkpt>
      <trkpt lat="50.75271" lon="1.71107">
        <ele>24</ele>
        <time>2019-09-10T16:08:03Z</time>
      </trkpt>
      <trkpt lat="50.75276" lon="1.71039">
        <ele>24</ele>
        <time>2019-09-10T16:08:10Z</time>
      </trkpt>
      <trkpt lat="50.75263" lon="1.70913">
        <ele>25</ele>
        <time>2019-09-10T16:08:25Z</time>
      </trkpt>
      <trkpt lat="50.75254" lon="1.70725">
        <ele>24</ele>
        <time>2019-09-10T16:08:46Z</time>
      </trkpt>
      <trkpt lat="50.75249" lon="1.707">
        <ele>25</ele>
        <time>2019-09-10T16:08:49Z</time>
      </trkpt>
      <trkpt lat="50.75242" lon="1.70682">
        <ele>25</ele>
        <time>2019-09-10T16:08:51Z</time>
      </trkpt>
      <trkpt lat="50.75234" lon="1.70641">
        <ele>25</ele>
        <time>2019-09-10T16:08:56Z</time>
      </trkpt>
      <trkpt lat="50.75231" lon="1.70487">
        <ele>24</ele>
        <time>2019-09-10T16:09:13Z</time>
      </trkpt>
      <trkpt lat="50.75226" lon="1.70458">
        <ele>24</ele>
        <time>2019-09-10T16:09:17Z</time>
      </trkpt>
      <trkpt lat="50.75202" lon="1.70397">
        <ele>25</ele>
        <time>2019-09-10T16:09:25Z</time>
      </trkpt>
      <trkpt lat="50.75189" lon="1.70407">
        <ele>26</ele>
        <time>2019-09-10T16:09:27Z</time>
      </trkpt>
      <trkpt lat="50.75189" lon="1.70407">
        <ele>26</ele>
        <time>2019-09-10T16:09:27Z</time>
      </trkpt>
      <trkpt lat="50.75202" lon="1.70397">
        <ele>25</ele>
        <time>2019-09-10T16:09:30Z</time>
      </trkpt>
      <trkpt lat="50.75181" lon="1.70344">
        <ele>27</ele>
        <time>2019-09-10T16:09:37Z</time>
      </trkpt>
      <trkpt lat="50.75169" lon="1.70294">
        <ele>29</ele>
        <time>2019-09-10T16:09:43Z</time>
      </trkpt>
      <trkpt lat="50.75129" lon="1.70235">
        <ele>31</ele>
        <time>2019-09-10T16:09:53Z</time>
      </trkpt>
      <trkpt lat="50.75122" lon="1.70219">
        <ele>31</ele>
        <time>2019-09-10T16:09:55Z</time>
      </trkpt>
      <trkpt lat="50.75119" lon="1.70202">
        <ele>31</ele>
        <time>2019-09-10T16:09:57Z</time>
      </trkpt>
      <trkpt lat="50.75117" lon="1.70181">
        <ele>31</ele>
        <time>2019-09-10T16:09:59Z</time>
      </trkpt>
      <trkpt lat="50.75131" lon="1.70062">
        <ele>30</ele>
        <time>2019-09-10T16:10:13Z</time>
      </trkpt>
      <trkpt lat="50.75139" lon="1.70044">
        <ele>29</ele>
        <time>2019-09-10T16:10:15Z</time>
      </trkpt>
      <trkpt lat="50.75273" lon="1.70072">
        <ele>24</ele>
        <time>2019-09-10T16:10:39Z</time>
      </trkpt>
      <trkpt lat="50.75346" lon="1.70084">
        <ele>28</ele>
        <time>2019-09-10T16:10:53Z</time>
      </trkpt>
      <trkpt lat="50.75359" lon="1.7008">
        <ele>29</ele>
        <time>2019-09-10T16:10:55Z</time>
      </trkpt>
      <trkpt lat="50.7537" lon="1.7006">
        <ele>30</ele>
        <time>2019-09-10T16:10:58Z</time>
      </trkpt>
      <trkpt lat="50.75372" lon="1.70051">
        <ele>30</ele>
        <time>2019-09-10T16:10:59Z</time>
      </trkpt>
      <trkpt lat="50.75371" lon="1.69991">
        <ele>29</ele>
        <time>2019-09-10T16:11:06Z</time>
      </trkpt>
      <trkpt lat="50.75341" lon="1.69538">
        <ele>28</ele>
        <time>2019-09-10T16:11:57Z</time>
      </trkpt>
      <trkpt lat="50.7534" lon="1.69491">
        <ele>26</ele>
        <time>2019-09-10T16:12:02Z</time>
      </trkpt>
      <trkpt lat="50.75345" lon="1.69444">
        <ele>25</ele>
        <time>2019-09-10T16:12:08Z</time>
      </trkpt>
      <trkpt lat="50.7538" lon="1.6917">
        <ele>27</ele>
        <time>2019-09-10T16:12:39Z</time>
      </trkpt>
      <trkpt lat="50.75381" lon="1.69127">
        <ele>27</ele>
        <time>2019-09-10T16:12:44Z</time>
      </trkpt>
      <trkpt lat="50.75382" lon="1.68984">
        <ele>27</ele>
        <time>2019-09-10T16:13:00Z</time>
      </trkpt>
      <trkpt lat="50.75391" lon="1.68925">
        <ele>26</ele>
        <time>2019-09-10T16:13:07Z</time>
      </trkpt>
      <trkpt lat="50.75422" lon="1.68851">
        <ele>25</ele>
        <time>2019-09-10T16:13:17Z</time>
      </trkpt>
      <trkpt lat="50.75429" lon="1.68844">
        <ele>25</ele>
        <time>2019-09-10T16:13:18Z</time>
      </trkpt>
      <trkpt lat="50.75457" lon="1.68823">
        <ele>25</ele>
        <time>2019-09-10T16:13:24Z</time>
      </trkpt>
      <trkpt lat="50.75533" lon="1.68756">
        <ele>24</ele>
        <time>2019-09-10T16:13:39Z</time>
      </trkpt>
      <trkpt lat="50.75596" lon="1.68671">
        <ele>22</ele>
        <time>2019-09-10T16:13:54Z</time>
      </trkpt>
      <trkpt lat="50.75634" lon="1.68608">
        <ele>23</ele>
        <time>2019-09-10T16:14:04Z</time>
      </trkpt>
      <trkpt lat="50.75639" lon="1.68589">
        <ele>23</ele>
        <time>2019-09-10T16:14:06Z</time>
      </trkpt>
      <trkpt lat="50.75644" lon="1.6855">
        <ele>24</ele>
        <time>2019-09-10T16:14:11Z</time>
      </trkpt>
      <trkpt lat="50.7564" lon="1.68491">
        <ele>25</ele>
        <time>2019-09-10T16:14:17Z</time>
      </trkpt>
      <trkpt lat="50.75633" lon="1.68336">
        <ele>23</ele>
        <time>2019-09-10T16:14:35Z</time>
      </trkpt>
      <trkpt lat="50.75631" lon="1.68239">
        <ele>26</ele>
        <time>2019-09-10T16:14:46Z</time>
      </trkpt>
      <trkpt lat="50.75632" lon="1.68181">
        <ele>27</ele>
        <time>2019-09-10T16:14:52Z</time>
      </trkpt>
      <trkpt lat="50.75639" lon="1.68101">
        <ele>25</ele>
        <time>2019-09-10T16:15:01Z</time>
      </trkpt>
      <trkpt lat="50.75711" lon="1.67774">
        <ele>22</ele>
        <time>2019-09-10T16:15:40Z</time>
      </trkpt>
      <trkpt lat="50.75729" lon="1.67711">
        <ele>23</ele>
        <time>2019-09-10T16:15:48Z</time>
      </trkpt>
      <trkpt lat="50.75768" lon="1.6762">
        <ele>26</ele>
        <time>2019-09-10T16:16:00Z</time>
      </trkpt>
      <trkpt lat="50.75776" lon="1.67597">
        <ele>28</ele>
        <time>2019-09-10T16:16:03Z</time>
      </trkpt>
      <trkpt lat="50.75781" lon="1.67575">
        <ele>29</ele>
        <time>2019-09-10T16:16:06Z</time>
      </trkpt>
      <trkpt lat="50.7578" lon="1.67545">
        <ele>29</ele>
        <time>2019-09-10T16:16:09Z</time>
      </trkpt>
      <trkpt lat="50.75776" lon="1.67509">
        <ele>29</ele>
        <time>2019-09-10T16:16:14Z</time>
      </trkpt>
      <trkpt lat="50.7577" lon="1.67473">
        <ele>29</ele>
        <time>2019-09-10T16:16:18Z</time>
      </trkpt>
      <trkpt lat="50.75768" lon="1.67432">
        <ele>30</ele>
        <time>2019-09-10T16:16:22Z</time>
      </trkpt>
      <trkpt lat="50.75768" lon="1.67414">
        <ele>30</ele>
        <time>2019-09-10T16:16:24Z</time>
      </trkpt>
      <trkpt lat="50.75808" lon="1.6727">
        <ele>33</ele>
        <time>2019-09-10T16:16:42Z</time>
      </trkpt>
      <trkpt lat="50.75825" lon="1.67189">
        <ele>33</ele>
        <time>2019-09-10T16:16:52Z</time>
      </trkpt>
      <trkpt lat="50.75829" lon="1.67159">
        <ele>32</ele>
        <time>2019-09-10T16:16:55Z</time>
      </trkpt>
      <trkpt lat="50.75832" lon="1.66956">
        <ele>32</ele>
        <time>2019-09-10T16:17:18Z</time>
      </trkpt>
      <trkpt lat="50.75834" lon="1.66914">
        <ele>31</ele>
        <time>2019-09-10T16:17:23Z</time>
      </trkpt>
      <trkpt lat="50.75843" lon="1.66873">
        <ele>29</ele>
        <time>2019-09-10T16:17:28Z</time>
      </trkpt>
      <trkpt lat="50.75894" lon="1.66789">
        <ele>25</ele>
        <time>2019-09-10T16:17:41Z</time>
      </trkpt>
      <trkpt lat="50.75952" lon="1.66682">
        <ele>22</ele>
        <time>2019-09-10T16:17:57Z</time>
      </trkpt>
      <trkpt lat="50.75999" lon="1.66602">
        <ele>21</ele>
        <time>2019-09-10T16:18:09Z</time>
      </trkpt>
      <trkpt lat="50.76071" lon="1.66534">
        <ele>21</ele>
        <time>2019-09-10T16:18:24Z</time>
      </trkpt>
      <trkpt lat="50.76093" lon="1.6651">
        <ele>21</ele>
        <time>2019-09-10T16:18:29Z</time>
      </trkpt>
      <trkpt lat="50.76138" lon="1.6643">
        <ele>19</ele>
        <time>2019-09-10T16:18:41Z</time>
      </trkpt>
      <trkpt lat="50.76164" lon="1.66349">
        <ele>17</ele>
        <time>2019-09-10T16:18:51Z</time>
      </trkpt>
      <trkpt lat="50.76179" lon="1.66311">
        <ele>17</ele>
        <time>2019-09-10T16:18:56Z</time>
      </trkpt>
      <trkpt lat="50.76264" lon="1.66158">
        <ele>19</ele>
        <time>2019-09-10T16:19:19Z</time>
      </trkpt>
      <trkpt lat="50.76268" lon="1.66147">
        <ele>20</ele>
        <time>2019-09-10T16:19:20Z</time>
      </trkpt>
      <trkpt lat="50.76271" lon="1.66132">
        <ele>20</ele>
        <time>2019-09-10T16:19:22Z</time>
      </trkpt>
      <trkpt lat="50.7627" lon="1.66091">
        <ele>20</ele>
        <time>2019-09-10T16:19:27Z</time>
      </trkpt>
      <trkpt lat="50.76268" lon="1.6607">
        <ele>19</ele>
        <time>2019-09-10T16:19:29Z</time>
      </trkpt>
      <trkpt lat="50.76263" lon="1.66046">
        <ele>19</ele>
        <time>2019-09-10T16:19:32Z</time>
      </trkpt>
      <trkpt lat="50.7624" lon="1.65976">
        <ele>17</ele>
        <time>2019-09-10T16:19:41Z</time>
      </trkpt>
      <trkpt lat="50.76234" lon="1.65938">
        <ele>17</ele>
        <time>2019-09-10T16:19:45Z</time>
      </trkpt>
      <trkpt lat="50.76233" lon="1.65905">
        <ele>18</ele>
        <time>2019-09-10T16:19:49Z</time>
      </trkpt>
      <trkpt lat="50.76234" lon="1.65622">
        <ele>18</ele>
        <time>2019-09-10T16:20:21Z</time>
      </trkpt>
      <trkpt lat="50.76244" lon="1.6532">
        <ele>13</ele>
        <time>2019-09-10T16:20:55Z</time>
      </trkpt>
      <trkpt lat="50.7624" lon="1.65249">
        <ele>13</ele>
        <time>2019-09-10T16:21:03Z</time>
      </trkpt>
      <trkpt lat="50.76227" lon="1.6512">
        <ele>14</ele>
        <time>2019-09-10T16:21:17Z</time>
      </trkpt>
      <trkpt lat="50.76221" lon="1.65096">
        <ele>14</ele>
        <time>2019-09-10T16:21:20Z</time>
      </trkpt>
      <trkpt lat="50.76141" lon="1.64901">
        <ele>13</ele>
        <time>2019-09-10T16:21:47Z</time>
      </trkpt>
      <trkpt lat="50.76136" lon="1.6488">
        <ele>13</ele>
        <time>2019-09-10T16:21:49Z</time>
      </trkpt>
      <trkpt lat="50.76136" lon="1.6488">
        <ele>13</ele>
        <time>2019-09-10T16:21:49Z</time>
      </trkpt>
      <trkpt lat="50.76132" lon="1.64867">
        <ele>13</ele>
        <time>2019-09-10T16:21:51Z</time>
      </trkpt>
      <trkpt lat="50.76131" lon="1.64842">
        <ele>13</ele>
        <time>2019-09-10T16:21:54Z</time>
      </trkpt>
      <trkpt lat="50.76135" lon="1.64815">
        <ele>13</ele>
        <time>2019-09-10T16:21:57Z</time>
      </trkpt>
      <trkpt lat="50.76148" lon="1.64781">
        <ele>13</ele>
        <time>2019-09-10T16:22:01Z</time>
      </trkpt>
      <trkpt lat="50.76207" lon="1.64659">
        <ele>15</ele>
        <time>2019-09-10T16:22:18Z</time>
      </trkpt>
      <trkpt lat="50.76232" lon="1.64603">
        <ele>14</ele>
        <time>2019-09-10T16:22:26Z</time>
      </trkpt>
      <trkpt lat="50.76234" lon="1.64568">
        <ele>13</ele>
        <time>2019-09-10T16:22:30Z</time>
      </trkpt>
      <trkpt lat="50.7621" lon="1.64435">
        <ele>13</ele>
        <time>2019-09-10T16:22:46Z</time>
      </trkpt>
      <trkpt lat="50.76205" lon="1.64386">
        <ele>13</ele>
        <time>2019-09-10T16:22:51Z</time>
      </trkpt>
      <trkpt lat="50.76207" lon="1.64342">
        <ele>13</ele>
        <time>2019-09-10T16:22:56Z</time>
      </trkpt>
      <trkpt lat="50.76213" lon="1.64288">
        <ele>14</ele>
        <time>2019-09-10T16:23:02Z</time>
      </trkpt>
      <trkpt lat="50.76224" lon="1.64251">
        <ele>15</ele>
        <time>2019-09-10T16:23:07Z</time>
      </trkpt>
      <trkpt lat="50.76301" lon="1.64065">
        <ele>13</ele>
        <time>2019-09-10T16:23:32Z</time>
      </trkpt>
      <trkpt lat="50.76323" lon="1.64018">
        <ele>14</ele>
        <time>2019-09-10T16:23:39Z</time>
      </trkpt>
      <trkpt lat="50.76348" lon="1.63973">
        <ele>16</ele>
        <time>2019-09-10T16:23:45Z</time>
      </trkpt>
      <trkpt lat="50.76433" lon="1.63848">
        <ele>20</ele>
        <time>2019-09-10T16:24:06Z</time>
      </trkpt>
      <trkpt lat="50.76478" lon="1.63787">
        <ele>22</ele>
        <time>2019-09-10T16:24:16Z</time>
      </trkpt>
      <trkpt lat="50.76491" lon="1.63781">
        <ele>22</ele>
        <time>2019-09-10T16:24:19Z</time>
      </trkpt>
      <trkpt lat="50.76507" lon="1.63782">
        <ele>23</ele>
        <time>2019-09-10T16:24:22Z</time>
      </trkpt>
      <trkpt lat="50.76514" lon="1.63786">
        <ele>23</ele>
        <time>2019-09-10T16:24:23Z</time>
      </trkpt>
      <trkpt lat="50.76532" lon="1.63809">
        <ele>24</ele>
        <time>2019-09-10T16:24:27Z</time>
      </trkpt>
      <trkpt lat="50.7655" lon="1.63801">
        <ele>25</ele>
        <time>2019-09-10T16:24:31Z</time>
      </trkpt>
      <trkpt lat="50.76559" lon="1.63779">
        <ele>24</ele>
        <time>2019-09-10T16:24:33Z</time>
      </trkpt>
      <trkpt lat="50.76558" lon="1.6377">
        <ele>24</ele>
        <time>2019-09-10T16:24:35Z</time>
      </trkpt>
      <trkpt lat="50.76551" lon="1.63739">
        <ele>22</ele>
        <time>2019-09-10T16:24:38Z</time>
      </trkpt>
      <trkpt lat="50.76537" lon="1.63716">
        <ele>21</ele>
        <time>2019-09-10T16:24:42Z</time>
      </trkpt>
      <trkpt lat="50.76531" lon="1.63701">
        <ele>21</ele>
        <time>2019-09-10T16:24:44Z</time>
      </trkpt>
      <trkpt lat="50.76529" lon="1.63639">
        <ele>19</ele>
        <time>2019-09-10T16:24:51Z</time>
      </trkpt>
      <trkpt lat="50.76472" lon="1.63308">
        <ele>14</ele>
        <time>2019-09-10T16:25:29Z</time>
      </trkpt>
      <trkpt lat="50.76463" lon="1.63262">
        <ele>14</ele>
        <time>2019-09-10T16:25:35Z</time>
      </trkpt>
      <trkpt lat="50.76456" lon="1.63248">
        <ele>13</ele>
        <time>2019-09-10T16:25:37Z</time>
      </trkpt>
      <trkpt lat="50.76416" lon="1.63203">
        <ele>12</ele>
        <time>2019-09-10T16:25:46Z</time>
      </trkpt>
      <trkpt lat="50.76387" lon="1.63153">
        <ele>12</ele>
        <time>2019-09-10T16:25:53Z</time>
      </trkpt>
      <trkpt lat="50.76428" lon="1.63112">
        <ele>13</ele>
        <time>2019-09-10T16:26:02Z</time>
      </trkpt>
      <trkpt lat="50.76413" lon="1.62862">
        <ele>9</ele>
        <time>2019-09-10T16:26:30Z</time>
      </trkpt>
      <trkpt lat="50.76412" lon="1.62823">
        <ele>9</ele>
        <time>2019-09-10T16:26:34Z</time>
      </trkpt>
      <trkpt lat="50.76414" lon="1.62782">
        <ele>10</ele>
        <time>2019-09-10T16:26:39Z</time>
      </trkpt>
      <trkpt lat="50.76417" lon="1.62757">
        <ele>11</ele>
        <time>2019-09-10T16:26:42Z</time>
      </trkpt>
      <trkpt lat="50.7645" lon="1.62636">
        <ele>13</ele>
        <time>2019-09-10T16:26:57Z</time>
      </trkpt>
      <trkpt lat="50.76463" lon="1.62559">
        <ele>13</ele>
        <time>2019-09-10T16:27:06Z</time>
      </trkpt>
      <trkpt lat="50.76471" lon="1.62496">
        <ele>11</ele>
        <time>2019-09-10T16:27:13Z</time>
      </trkpt>
      <trkpt lat="50.76475" lon="1.62406">
        <ele>11</ele>
        <time>2019-09-10T16:27:23Z</time>
      </trkpt>
      <trkpt lat="50.76479" lon="1.62364">
        <ele>10</ele>
        <time>2019-09-10T16:27:28Z</time>
      </trkpt>
      <trkpt lat="50.76489" lon="1.62313">
        <ele>8</ele>
        <time>2019-09-10T16:27:34Z</time>
      </trkpt>
      <trkpt lat="50.76494" lon="1.62295">
        <ele>8</ele>
        <time>2019-09-10T16:27:36Z</time>
      </trkpt>
      <trkpt lat="50.76505" lon="1.62271">
        <ele>8</ele>
        <time>2019-09-10T16:27:39Z</time>
      </trkpt>
      <trkpt lat="50.76531" lon="1.62234">
        <ele>8</ele>
        <time>2019-09-10T16:27:46Z</time>
      </trkpt>
      <trkpt lat="50.76595" lon="1.6219">
        <ele>6</ele>
        <time>2019-09-10T16:27:58Z</time>
      </trkpt>
      <trkpt lat="50.76625" lon="1.62159">
        <ele>6</ele>
        <time>2019-09-10T16:28:05Z</time>
      </trkpt>
      <trkpt lat="50.76648" lon="1.6213">
        <ele>6</ele>
        <time>2019-09-10T16:28:10Z</time>
      </trkpt>
      <trkpt lat="50.76685" lon="1.62052">
        <ele>5</ele>
        <time>2019-09-10T16:28:21Z</time>
      </trkpt>
      <trkpt lat="50.76685" lon="1.62052">
        <ele>5</ele>
        <time>2019-09-10T16:28:21Z</time>
      </trkpt>
      <trkpt lat="50.76697" lon="1.62023">
        <ele>6</ele>
        <time>2019-09-10T16:28:25Z</time>
      </trkpt>
      <trkpt lat="50.7673" lon="1.61964">
        <ele>7</ele>
        <time>2019-09-10T16:28:33Z</time>
      </trkpt>
      <trkpt lat="50.76805" lon="1.61861">
        <ele>6</ele>
        <time>2019-09-10T16:28:51Z</time>
      </trkpt>
      <trkpt lat="50.7684" lon="1.61786">
        <ele>5</ele>
        <time>2019-09-10T16:29:02Z</time>
      </trkpt>
      <trkpt lat="50.76923" lon="1.61588">
        <ele>5</ele>
        <time>2019-09-10T16:29:28Z</time>
      </trkpt>
      <trkpt lat="50.76936" lon="1.61524">
        <ele>8</ele>
        <time>2019-09-10T16:29:36Z</time>
      </trkpt>
      <trkpt lat="50.76943" lon="1.61508">
        <ele>9</ele>
        <time>2019-09-10T16:29:38Z</time>
      </trkpt>
      <trkpt lat="50.76947" lon="1.61506">
        <ele>9</ele>
        <time>2019-09-10T16:29:39Z</time>
      </trkpt>
      <trkpt lat="50.76952" lon="1.61496">
        <ele>9</ele>
        <time>2019-09-10T16:29:40Z</time>
      </trkpt>
      <trkpt lat="50.76951" lon="1.61483">
        <ele>10</ele>
        <time>2019-09-10T16:29:42Z</time>
      </trkpt>
      <trkpt lat="50.76953" lon="1.61461">
        <ele>11</ele>
        <time>2019-09-10T16:29:44Z</time>
      </trkpt>
      <trkpt lat="50.76964" lon="1.61396">
        <ele>11</ele>
        <time>2019-09-10T16:29:52Z</time>
      </trkpt>
      <trkpt lat="50.76968" lon="1.61352">
        <ele>10</ele>
        <time>2019-09-10T16:29:57Z</time>
      </trkpt>
      <trkpt lat="50.77002" lon="1.61194">
        <ele>7</ele>
        <time>2019-09-10T16:30:16Z</time>
      </trkpt>
      <trkpt lat="50.77002" lon="1.61194">
        <ele>7</ele>
        <time>2019-09-10T16:30:16Z</time>
      </trkpt>
      <trkpt lat="50.77006" lon="1.61166">
        <ele>7</ele>
        <time>2019-09-10T16:30:19Z</time>
      </trkpt>
      <trkpt lat="50.77017" lon="1.61166">
        <ele>8</ele>
        <time>2019-09-10T16:30:21Z</time>
      </trkpt>
      <trkpt lat="50.77047" lon="1.6117">
        <ele>10</ele>
        <time>2019-09-10T16:30:26Z</time>
      </trkpt>
      <trkpt lat="50.77048" lon="1.61196">
        <ele>10</ele>
        <time>2019-09-10T16:30:29Z</time>
      </trkpt>
      <trkpt lat="50.77045" lon="1.61227">
        <ele>10</ele>
        <time>2019-09-10T16:30:33Z</time>
      </trkpt>
      <trkpt lat="50.77008" lon="1.61387">
        <ele>10</ele>
        <time>2019-09-10T16:30:52Z</time>
      </trkpt>
      <trkpt lat="50.76986" lon="1.6144">
        <ele>11</ele>
        <time>2019-09-10T16:30:59Z</time>
      </trkpt>
      <trkpt lat="50.76978" lon="1.61477">
        <ele>11</ele>
        <time>2019-09-10T16:31:03Z</time>
      </trkpt>
      <trkpt lat="50.7698" lon="1.61499">
        <ele>10</ele>
        <time>2019-09-10T16:31:06Z</time>
      </trkpt>
      <trkpt lat="50.76986" lon="1.6152">
        <ele>10</ele>
        <time>2019-09-10T16:31:08Z</time>
      </trkpt>
      <trkpt lat="50.77006" lon="1.61569">
        <ele>9</ele>
        <time>2019-09-10T16:31:15Z</time>
      </trkpt>
      <trkpt lat="50.77011" lon="1.61588">
        <ele>9</ele>
        <time>2019-09-10T16:31:17Z</time>
      </trkpt>
      <trkpt lat="50.77017" lon="1.61631">
        <ele>9</ele>
        <time>2019-09-10T16:31:22Z</time>
      </trkpt>
      <trkpt lat="50.77016" lon="1.61653">
        <ele>9</ele>
        <time>2019-09-10T16:31:25Z</time>
      </trkpt>
      <trkpt lat="50.76959" lon="1.61783">
        <ele>7</ele>
        <time>2019-09-10T16:31:43Z</time>
      </trkpt>
      <trkpt lat="50.76878" lon="1.61958">
        <ele>8</ele>
        <time>2019-09-10T16:32:07Z</time>
      </trkpt>
      <trkpt lat="50.76859" lon="1.61988">
        <ele>8</ele>
        <time>2019-09-10T16:32:12Z</time>
      </trkpt>
      <trkpt lat="50.7684" lon="1.62011">
        <ele>7</ele>
        <time>2019-09-10T16:32:16Z</time>
      </trkpt>
      <trkpt lat="50.76819" lon="1.62061">
        <ele>7</ele>
        <time>2019-09-10T16:32:23Z</time>
      </trkpt>
      <trkpt lat="50.76808" lon="1.62102">
        <ele>7</ele>
        <time>2019-09-10T16:32:28Z</time>
      </trkpt>
      <trkpt lat="50.76802" lon="1.62142">
        <ele>8</ele>
        <time>2019-09-10T16:32:32Z</time>
      </trkpt>
      <trkpt lat="50.76782" lon="1.6246">
        <ele>14</ele>
        <time>2019-09-10T16:33:08Z</time>
      </trkpt>
      <trkpt lat="50.76782" lon="1.6246">
        <ele>14</ele>
        <time>2019-09-10T16:33:08Z</time>
      </trkpt>
      <trkpt lat="50.76775" lon="1.62567">
        <ele>14</ele>
        <time>2019-09-10T16:33:20Z</time>
      </trkpt>
      <trkpt lat="50.7678" lon="1.62622">
        <ele>13</ele>
        <time>2019-09-10T16:33:27Z</time>
      </trkpt>
      <trkpt lat="50.76802" lon="1.62695">
        <ele>15</ele>
        <time>2019-09-10T16:33:36Z</time>
      </trkpt>
      <trkpt lat="50.76808" lon="1.62758">
        <ele>15</ele>
        <time>2019-09-10T16:33:43Z</time>
      </trkpt>
      <trkpt lat="50.76801" lon="1.6286">
        <ele>15</ele>
        <time>2019-09-10T16:33:55Z</time>
      </trkpt>
      <trkpt lat="50.76793" lon="1.62937">
        <ele>19</ele>
        <time>2019-09-10T16:34:03Z</time>
      </trkpt>
      <trkpt lat="50.76787" lon="1.62958">
        <ele>20</ele>
        <time>2019-09-10T16:34:06Z</time>
      </trkpt>
      <trkpt lat="50.76781" lon="1.62974">
        <ele>20</ele>
        <time>2019-09-10T16:34:08Z</time>
      </trkpt>
      <trkpt lat="50.76773" lon="1.62984">
        <ele>20</ele>
        <time>2019-09-10T16:34:10Z</time>
      </trkpt>
      <trkpt lat="50.76759" lon="1.62992">
        <ele>19</ele>
        <time>2019-09-10T16:34:12Z</time>
      </trkpt>
      <trkpt lat="50.76737" lon="1.63012">
        <ele>20</ele>
        <time>2019-09-10T16:34:17Z</time>
      </trkpt>
      <trkpt lat="50.76751" lon="1.63005">
        <ele>20</ele>
        <time>2019-09-10T16:34:20Z</time>
      </trkpt>
      <trkpt lat="50.76819" lon="1.62996">
        <ele>27</ele>
        <time>2019-09-10T16:34:32Z</time>
      </trkpt>
      <trkpt lat="50.76846" lon="1.62988">
        <ele>30</ele>
        <time>2019-09-10T16:34:37Z</time>
      </trkpt>
      <trkpt lat="50.76867" lon="1.62969">
        <ele>31</ele>
        <time>2019-09-10T16:34:41Z</time>
      </trkpt>
      <trkpt lat="50.76893" lon="1.62902">
        <ele>32</ele>
        <time>2019-09-10T16:34:50Z</time>
      </trkpt>
      <trkpt lat="50.76957" lon="1.6281">
        <ele>39</ele>
        <time>2019-09-10T16:35:05Z</time>
      </trkpt>
      <trkpt lat="50.76968" lon="1.62801">
        <ele>40</ele>
        <time>2019-09-10T16:35:07Z</time>
      </trkpt>
      <trkpt lat="50.76985" lon="1.62797">
        <ele>41</ele>
        <time>2019-09-10T16:35:10Z</time>
      </trkpt>
      <trkpt lat="50.77005" lon="1.62806">
        <ele>43</ele>
        <time>2019-09-10T16:35:14Z</time>
      </trkpt>
      <trkpt lat="50.77013" lon="1.62814">
        <ele>43</ele>
        <time>2019-09-10T16:35:16Z</time>
      </trkpt>
      <trkpt lat="50.77161" lon="1.63059">
        <ele>64</ele>
        <time>2019-09-10T16:35:54Z</time>
      </trkpt>
      <trkpt lat="50.77178" lon="1.63079">
        <ele>67</ele>
        <time>2019-09-10T16:35:58Z</time>
      </trkpt>
      <trkpt lat="50.77187" lon="1.63083">
        <ele>68</ele>
        <time>2019-09-10T16:35:59Z</time>
      </trkpt>
      <trkpt lat="50.77198" lon="1.63082">
        <ele>68</ele>
        <time>2019-09-10T16:36:01Z</time>
      </trkpt>
      <trkpt lat="50.77207" lon="1.63075">
        <ele>68</ele>
        <time>2019-09-10T16:36:03Z</time>
      </trkpt>
      <trkpt lat="50.77216" lon="1.63063">
        <ele>67</ele>
        <time>2019-09-10T16:36:05Z</time>
      </trkpt>
      <trkpt lat="50.77268" lon="1.62962">
        <ele>66</ele>
        <time>2019-09-10T16:36:20Z</time>
      </trkpt>
      <trkpt lat="50.77278" lon="1.62957">
        <ele>67</ele>
        <time>2019-09-10T16:36:22Z</time>
      </trkpt>
      <trkpt lat="50.7729" lon="1.62962">
        <ele>68</ele>
        <time>2019-09-10T16:36:24Z</time>
      </trkpt>
      <trkpt lat="50.77318" lon="1.62997">
        <ele>71</ele>
        <time>2019-09-10T16:36:30Z</time>
      </trkpt>
      <trkpt lat="50.77342" lon="1.63021">
        <ele>73</ele>
        <time>2019-09-10T16:36:35Z</time>
      </trkpt>
      <trkpt lat="50.77352" lon="1.62997">
        <ele>72</ele>
        <time>2019-09-10T16:36:39Z</time>
      </trkpt>
      <trkpt lat="50.77363" lon="1.63002">
        <ele>72</ele>
        <time>2019-09-10T16:36:41Z</time>
      </trkpt>
      <trkpt lat="50.7738" lon="1.62994">
        <ele>72</ele>
        <time>2019-09-10T16:36:44Z</time>
      </trkpt>
      <trkpt lat="50.77524" lon="1.62913">
        <ele>65</ele>
        <time>2019-09-10T16:37:11Z</time>
      </trkpt>
      <trkpt lat="50.77597" lon="1.6288">
        <ele>59</ele>
        <time>2019-09-10T16:37:24Z</time>
      </trkpt>
      <trkpt lat="50.7767" lon="1.62871">
        <ele>51</ele>
        <time>2019-09-10T16:37:37Z</time>
      </trkpt>
      <trkpt lat="50.77783" lon="1.62866">
        <ele>42</ele>
        <time>2019-09-10T16:37:58Z</time>
      </trkpt>
      <trkpt lat="50.77802" lon="1.62857">
        <ele>41</ele>
        <time>2019-09-10T16:38:01Z</time>
      </trkpt>
      <trkpt lat="50.77831" lon="1.62835">
        <ele>39</ele>
        <time>2019-09-10T16:38:07Z</time>
      </trkpt>
      <trkpt lat="50.77852" lon="1.62825">
        <ele>38</ele>
        <time>2019-09-10T16:38:11Z</time>
      </trkpt>
      <trkpt lat="50.77876" lon="1.62821">
        <ele>37</ele>
        <time>2019-09-10T16:38:15Z</time>
      </trkpt>
      <trkpt lat="50.78013" lon="1.62826">
        <ele>35</ele>
        <time>2019-09-10T16:38:39Z</time>
      </trkpt>
      <trkpt lat="50.78017" lon="1.62827">
        <ele>35</ele>
        <time>2019-09-10T16:38:40Z</time>
      </trkpt>
      <trkpt lat="50.78029" lon="1.62842">
        <ele>35</ele>
        <time>2019-09-10T16:38:43Z</time>
      </trkpt>
      <trkpt lat="50.78036" lon="1.62854">
        <ele>34</ele>
        <time>2019-09-10T16:38:45Z</time>
      </trkpt>
      <trkpt lat="50.78049" lon="1.62893">
        <ele>33</ele>
        <time>2019-09-10T16:38:50Z</time>
      </trkpt>
      <trkpt lat="50.78056" lon="1.62968">
        <ele>31</ele>
        <time>2019-09-10T16:38:58Z</time>
      </trkpt>
      <trkpt lat="50.78093" lon="1.63141">
        <ele>27</ele>
        <time>2019-09-10T16:39:19Z</time>
      </trkpt>
      <trkpt lat="50.78107" lon="1.63171">
        <ele>26</ele>
        <time>2019-09-10T16:39:23Z</time>
      </trkpt>
      <trkpt lat="50.78115" lon="1.63182">
        <ele>26</ele>
        <time>2019-09-10T16:39:25Z</time>
      </trkpt>
      <trkpt lat="50.78125" lon="1.63191">
        <ele>26</ele>
        <time>2019-09-10T16:39:27Z</time>
      </trkpt>
      <trkpt lat="50.78385" lon="1.63348">
        <ele>19</ele>
        <time>2019-09-10T16:40:16Z</time>
      </trkpt>
      <trkpt lat="50.78448" lon="1.63391">
        <ele>18</ele>
        <time>2019-09-10T16:40:29Z</time>
      </trkpt>
      <trkpt lat="50.78475" lon="1.63405">
        <ele>18</ele>
        <time>2019-09-10T16:40:34Z</time>
      </trkpt>
      <trkpt lat="50.78503" lon="1.63408">
        <ele>18</ele>
        <time>2019-09-10T16:40:39Z</time>
      </trkpt>
      <trkpt lat="50.78627" lon="1.63383">
        <ele>18</ele>
        <time>2019-09-10T16:41:01Z</time>
      </trkpt>
      <trkpt lat="50.78658" lon="1.63388">
        <ele>17</ele>
        <time>2019-09-10T16:41:06Z</time>
      </trkpt>
      <trkpt lat="50.78754" lon="1.6344">
        <ele>16</ele>
        <time>2019-09-10T16:41:25Z</time>
      </trkpt>
      <trkpt lat="50.78805" lon="1.6347">
        <ele>16</ele>
        <time>2019-09-10T16:41:34Z</time>
      </trkpt>
      <trkpt lat="50.78831" lon="1.63479">
        <ele>16</ele>
        <time>2019-09-10T16:41:39Z</time>
      </trkpt>
      <trkpt lat="50.7886" lon="1.63483">
        <ele>16</ele>
        <time>2019-09-10T16:41:44Z</time>
      </trkpt>
      <trkpt lat="50.7886" lon="1.63483">
        <ele>16</ele>
        <time>2019-09-10T16:41:44Z</time>
      </trkpt>
      <trkpt lat="50.78889" lon="1.63487">
        <ele>15</ele>
        <time>2019-09-10T16:41:49Z</time>
      </trkpt>
      <trkpt lat="50.78936" lon="1.63467">
        <ele>15</ele>
        <time>2019-09-10T16:41:58Z</time>
      </trkpt>
      <trkpt lat="50.79017" lon="1.63427">
        <ele>14</ele>
        <time>2019-09-10T16:42:13Z</time>
      </trkpt>
      <trkpt lat="50.79077" lon="1.63388">
        <ele>14</ele>
        <time>2019-09-10T16:42:25Z</time>
      </trkpt>
      <trkpt lat="50.79191" lon="1.63242">
        <ele>14</ele>
        <time>2019-09-10T16:42:51Z</time>
      </trkpt>
      <trkpt lat="50.79407" lon="1.63144">
        <ele>22</ele>
        <time>2019-09-10T16:43:31Z</time>
      </trkpt>
      <trkpt lat="50.79485" lon="1.63096">
        <ele>18</ele>
        <time>2019-09-10T16:43:46Z</time>
      </trkpt>
      <trkpt lat="50.79507" lon="1.63087">
        <ele>17</ele>
        <time>2019-09-10T16:43:50Z</time>
      </trkpt>
      <trkpt lat="50.79604" lon="1.6306">
        <ele>10</ele>
        <time>2019-09-10T16:44:07Z</time>
      </trkpt>
      <trkpt lat="50.79633" lon="1.6306">
        <ele>10</ele>
        <time>2019-09-10T16:44:12Z</time>
      </trkpt>
      <trkpt lat="50.79735" lon="1.63072">
        <ele>9</ele>
        <time>2019-09-10T16:44:30Z</time>
      </trkpt>
      <trkpt lat="50.79781" lon="1.6308">
        <ele>10</ele>
        <time>2019-09-10T16:44:39Z</time>
      </trkpt>
      <trkpt lat="50.79798" lon="1.63089">
        <ele>11</ele>
        <time>2019-09-10T16:44:42Z</time>
      </trkpt>
      <trkpt lat="50.79924" lon="1.63218">
        <ele>10</ele>
        <time>2019-09-10T16:45:09Z</time>
      </trkpt>
      <trkpt lat="50.80034" lon="1.63337">
        <ele>10</ele>
        <time>2019-09-10T16:45:32Z</time>
      </trkpt>
      <trkpt lat="50.80056" lon="1.63357">
        <ele>10</ele>
        <time>2019-09-10T16:45:37Z</time>
      </trkpt>
      <trkpt lat="50.80069" lon="1.63364">
        <ele>10</ele>
        <time>2019-09-10T16:45:39Z</time>
      </trkpt>
      <trkpt lat="50.80083" lon="1.63368">
        <ele>10</ele>
        <time>2019-09-10T16:45:42Z</time>
      </trkpt>
      <trkpt lat="50.80188" lon="1.63343">
        <ele>8</ele>
        <time>2019-09-10T16:46:01Z</time>
      </trkpt>
      <trkpt lat="50.80195" lon="1.63336">
        <ele>8</ele>
        <time>2019-09-10T16:46:02Z</time>
      </trkpt>
      <trkpt lat="50.80201" lon="1.63322">
        <ele>7</ele>
        <time>2019-09-10T16:46:04Z</time>
      </trkpt>
      <trkpt lat="50.80197" lon="1.63289">
        <ele>8</ele>
        <time>2019-09-10T16:46:08Z</time>
      </trkpt>
      <trkpt lat="50.80128" lon="1.63004">
        <ele>10</ele>
        <time>2019-09-10T16:46:42Z</time>
      </trkpt>
      <trkpt lat="50.80122" lon="1.62974">
        <ele>11</ele>
        <time>2019-09-10T16:46:46Z</time>
      </trkpt>
      <trkpt lat="50.8012" lon="1.62925">
        <ele>10</ele>
        <time>2019-09-10T16:46:51Z</time>
      </trkpt>
      <trkpt lat="50.80123" lon="1.62878">
        <ele>10</ele>
        <time>2019-09-10T16:46:57Z</time>
      </trkpt>
      <trkpt lat="50.80132" lon="1.62806">
        <ele>10</ele>
        <time>2019-09-10T16:47:05Z</time>
      </trkpt>
      <trkpt lat="50.80138" lon="1.62776">
        <ele>10</ele>
        <time>2019-09-10T16:47:08Z</time>
      </trkpt>
      <trkpt lat="50.80148" lon="1.62756">
        <ele>10</ele>
        <time>2019-09-10T16:47:11Z</time>
      </trkpt>
      <trkpt lat="50.80153" lon="1.62752">
        <ele>9</ele>
        <time>2019-09-10T16:47:12Z</time>
      </trkpt>
      <trkpt lat="50.80197" lon="1.62744">
        <ele>9</ele>
        <time>2019-09-10T16:47:20Z</time>
      </trkpt>
      <trkpt lat="50.80247" lon="1.62741">
        <ele>9</ele>
        <time>2019-09-10T16:47:29Z</time>
      </trkpt>
      <trkpt lat="50.80299" lon="1.62732">
        <ele>11</ele>
        <time>2019-09-10T16:47:38Z</time>
      </trkpt>
      <trkpt lat="50.8031" lon="1.62728">
        <ele>11</ele>
        <time>2019-09-10T16:47:40Z</time>
      </trkpt>
      <trkpt lat="50.8032" lon="1.62718">
        <ele>11</ele>
        <time>2019-09-10T16:47:42Z</time>
      </trkpt>
      <trkpt lat="50.80325" lon="1.62689">
        <ele>12</ele>
        <time>2019-09-10T16:47:46Z</time>
      </trkpt>
      <trkpt lat="50.80342" lon="1.62558">
        <ele>16</ele>
        <time>2019-09-10T16:48:01Z</time>
      </trkpt>
      <trkpt lat="50.80342" lon="1.62558">
        <ele>16</ele>
        <time>2019-09-10T16:48:01Z</time>
      </trkpt>
      <trkpt lat="50.80352" lon="1.62469">
        <ele>18</ele>
        <time>2019-09-10T16:48:11Z</time>
      </trkpt>
      <trkpt lat="50.80377" lon="1.62302">
        <ele>18</ele>
        <time>2019-09-10T16:48:30Z</time>
      </trkpt>
      <trkpt lat="50.80376" lon="1.62193">
        <ele>15</ele>
        <time>2019-09-10T16:48:43Z</time>
      </trkpt>
      <trkpt lat="50.80378" lon="1.62178">
        <ele>14</ele>
        <time>2019-09-10T16:48:44Z</time>
      </trkpt>
      <trkpt lat="50.80387" lon="1.62138">
        <ele>13</ele>
        <time>2019-09-10T16:48:49Z</time>
      </trkpt>
      <trkpt lat="50.80534" lon="1.61709">
        <ele>20</ele>
        <time>2019-09-10T16:49:44Z</time>
      </trkpt>
      <trkpt lat="50.80535" lon="1.61687">
        <ele>21</ele>
        <time>2019-09-10T16:49:46Z</time>
      </trkpt>
      <trkpt lat="50.80555" lon="1.61678">
        <ele>21</ele>
        <time>2019-09-10T16:49:50Z</time>
      </trkpt>
      <trkpt lat="50.80563" lon="1.61669">
        <ele>22</ele>
        <time>2019-09-10T16:49:52Z</time>
      </trkpt>
      <trkpt lat="50.80572" lon="1.61649">
        <ele>22</ele>
        <time>2019-09-10T16:49:55Z</time>
      </trkpt>
      <trkpt lat="50.80578" lon="1.61627">
        <ele>22</ele>
        <time>2019-09-10T16:49:57Z</time>
      </trkpt>
      <trkpt lat="50.80581" lon="1.61597">
        <ele>23</ele>
        <time>2019-09-10T16:50:01Z</time>
      </trkpt>
      <trkpt lat="50.80584" lon="1.61583">
        <ele>23</ele>
        <time>2019-09-10T16:50:02Z</time>
      </trkpt>
      <trkpt lat="50.80592" lon="1.61564">
        <ele>23</ele>
        <time>2019-09-10T16:50:05Z</time>
      </trkpt>
      <trkpt lat="50.806" lon="1.61546">
        <ele>24</ele>
        <time>2019-09-10T16:50:07Z</time>
      </trkpt>
      <trkpt lat="50.80628" lon="1.6151">
        <ele>24</ele>
        <time>2019-09-10T16:50:14Z</time>
      </trkpt>
      <trkpt lat="50.80664" lon="1.61471">
        <ele>24</ele>
        <time>2019-09-10T16:50:22Z</time>
      </trkpt>
      <trkpt lat="50.80729" lon="1.61389">
        <ele>27</ele>
        <time>2019-09-10T16:50:36Z</time>
      </trkpt>
      <trkpt lat="50.80776" lon="1.61325">
        <ele>29</ele>
        <time>2019-09-10T16:50:47Z</time>
      </trkpt>
      <trkpt lat="50.80802" lon="1.61285">
        <ele>30</ele>
        <time>2019-09-10T16:50:54Z</time>
      </trkpt>
      <trkpt lat="50.80906" lon="1.61079">
        <ele>30</ele>
        <time>2019-09-10T16:51:24Z</time>
      </trkpt>
      <trkpt lat="50.81039" lon="1.60875">
        <ele>31</ele>
        <time>2019-09-10T16:51:56Z</time>
      </trkpt>
      <trkpt lat="50.8109" lon="1.60955">
        <ele>33</ele>
        <time>2019-09-10T16:52:09Z</time>
      </trkpt>
      <trkpt lat="50.8109" lon="1.60955">
        <ele>33</ele>
        <time>2019-09-10T16:52:09Z</time>
      </trkpt>
      <trkpt lat="50.81113" lon="1.60993">
        <ele>34</ele>
        <time>2019-09-10T16:52:15Z</time>
      </trkpt>
      <trkpt lat="50.81129" lon="1.61027">
        <ele>35</ele>
        <time>2019-09-10T16:52:20Z</time>
      </trkpt>
      <trkpt lat="50.81183" lon="1.61224">
        <ele>39</ele>
        <time>2019-09-10T16:52:44Z</time>
      </trkpt>
    </trkseg>
  </trk>
</gpx>